<?xml version='1.0' encoding='UTF-8'?><gpx version="1.1" creator="JPX - https://github.com/jenetics/jpx" xmlns="http://www.topografix.com/GPX/1/1"><trk><trkseg><trkpt lat="44.3485513" lon="7.7523834"><ele>588.0</ele><time>2026-04-03T14:31:34.225Z</time></trkpt><trkpt lat="44.3486351" lon="7.7523583"><ele>588.0</ele><time>2026-04-03T14:31:35.222Z</time></trkpt><trkpt lat="44.3487231" lon="7.7523177"><ele>588.0</ele><time>2026-04-03T14:31:36.225Z</time></trkpt><trkpt lat="44.3488169" lon="7.7522908"><ele>588.0</ele><time>2026-04-03T14:31:37.228Z</time></trkpt><trkpt lat="44.3489451" lon="7.7522549"><ele>588.0</ele><time>2026-04-03T14:31:38.222Z</time></trkpt><trkpt lat="44.3490667" lon="7.7522212"><ele>588.25</ele><time>2026-04-03T14:31:39.242Z</time></trkpt><trkpt lat="44.3491938" lon="7.7521911"><ele>588.5</ele><time>2026-04-03T14:31:40.221Z</time></trkpt><trkpt lat="44.3493235" lon="7.7521529"><ele>588.75</ele><time>2026-04-03T14:31:41.225Z</time></trkpt><trkpt lat="44.3494501" lon="7.7520995"><ele>589.0</ele><time>2026-04-03T14:31:42.225Z</time></trkpt><trkpt lat="44.3495745" lon="7.752053"><ele>589.0</ele><time>2026-04-03T14:31:43.223Z</time></trkpt><trkpt lat="44.3496811" lon="7.7520008"><ele>589.0</ele><time>2026-04-03T14:31:44.223Z</time></trkpt><trkpt lat="44.3497937" lon="7.7519329"><ele>589.0</ele><time>2026-04-03T14:31:45.228Z</time></trkpt><trkpt lat="44.3499129" lon="7.7518501"><ele>589.0</ele><time>2026-04-03T14:31:46.222Z</time></trkpt><trkpt lat="44.3500354" lon="7.751771"><ele>587.3333333333334</ele><time>2026-04-03T14:31:47.222Z</time></trkpt><trkpt lat="44.3501639" lon="7.7516763"><ele>585.6666666666666</ele><time>2026-04-03T14:31:48.227Z</time></trkpt><trkpt lat="44.3502975" lon="7.7515784"><ele>584.0</ele><time>2026-04-03T14:31:49.223Z</time></trkpt><trkpt lat="44.350443" lon="7.7514762"><ele>585.0</ele><time>2026-04-03T14:31:50.224Z</time></trkpt><trkpt lat="44.3505928" lon="7.7513615"><ele>586.0</ele><time>2026-04-03T14:31:51.219Z</time></trkpt><trkpt lat="44.3507492" lon="7.7512405"><ele>587.0</ele><time>2026-04-03T14:31:52.222Z</time></trkpt><trkpt lat="44.3509073" lon="7.751116"><ele>584.3333333333333</ele><time>2026-04-03T14:31:53.224Z</time></trkpt><trkpt lat="44.3510707" lon="7.7509844"><ele>581.6666666666666</ele><time>2026-04-03T14:31:54.219Z</time></trkpt><trkpt lat="44.3512353" lon="7.7508582"><ele>579.0</ele><time>2026-04-03T14:31:55.219Z</time></trkpt><trkpt lat="44.3513992" lon="7.7507319"><ele>579.0</ele><time>2026-04-03T14:31:56.216Z</time></trkpt><trkpt lat="44.3515631" lon="7.7505999"><ele>579.0</ele><time>2026-04-03T14:31:57.228Z</time></trkpt><trkpt lat="44.351729" lon="7.7504674"><ele>579.0</ele><time>2026-04-03T14:31:58.219Z</time></trkpt><trkpt lat="44.3518998" lon="7.7503392"><ele>579.0</ele><time>2026-04-03T14:31:59.218Z</time></trkpt><trkpt lat="44.3520681" lon="7.7502132"><ele>579.0</ele><time>2026-04-03T14:32:00.226Z</time></trkpt><trkpt lat="44.3522368" lon="7.7500887"><ele>579.0</ele><time>2026-04-03T14:32:01.221Z</time></trkpt><trkpt lat="44.3524014" lon="7.7499679"><ele>576.0</ele><time>2026-04-03T14:32:02.221Z</time></trkpt><trkpt lat="44.3525682" lon="7.749849"><ele>573.0</ele><time>2026-04-03T14:32:03.228Z</time></trkpt><trkpt lat="44.3527367" lon="7.7497321"><ele>570.0</ele><time>2026-04-03T14:32:04.219Z</time></trkpt><trkpt lat="44.3528992" lon="7.7496138"><ele>569.6666666666666</ele><time>2026-04-03T14:32:05.227Z</time></trkpt><trkpt lat="44.3530583" lon="7.7495009"><ele>569.3333333333333</ele><time>2026-04-03T14:32:06.224Z</time></trkpt><trkpt lat="44.3532273" lon="7.7493924"><ele>569.0</ele><time>2026-04-03T14:32:07.22Z</time></trkpt><trkpt lat="44.3533971" lon="7.7492928"><ele>569.0</ele><time>2026-04-03T14:32:08.222Z</time></trkpt><trkpt lat="44.3535706" lon="7.7492029"><ele>569.0</ele><time>2026-04-03T14:32:09.221Z</time></trkpt><trkpt lat="44.3537456" lon="7.7491175"><ele>569.0</ele><time>2026-04-03T14:32:10.22Z</time></trkpt><trkpt lat="44.353919" lon="7.7490394"><ele>569.0</ele><time>2026-04-03T14:32:11.225Z</time></trkpt><trkpt lat="44.354096" lon="7.7489633"><ele>569.0</ele><time>2026-04-03T14:32:12.221Z</time></trkpt><trkpt lat="44.3542794" lon="7.7488883"><ele>569.0</ele><time>2026-04-03T14:32:13.22Z</time></trkpt><trkpt lat="44.35446" lon="7.7488125"><ele>569.0</ele><time>2026-04-03T14:32:14.221Z</time></trkpt><trkpt lat="44.3546409" lon="7.7487376"><ele>569.0</ele><time>2026-04-03T14:32:15.221Z</time></trkpt><trkpt lat="44.3548256" lon="7.7486491"><ele>569.0</ele><time>2026-04-03T14:32:16.221Z</time></trkpt><trkpt lat="44.3550063" lon="7.7485438"><ele>569.0</ele><time>2026-04-03T14:32:17.219Z</time></trkpt><trkpt lat="44.3551832" lon="7.7484205"><ele>569.0</ele><time>2026-04-03T14:32:18.218Z</time></trkpt><trkpt lat="44.3553544" lon="7.748286"><ele>569.0</ele><time>2026-04-03T14:32:19.227Z</time></trkpt><trkpt lat="44.3555229" lon="7.7481328"><ele>569.0</ele><time>2026-04-03T14:32:20.222Z</time></trkpt><trkpt lat="44.3556838" lon="7.7479609"><ele>569.0</ele><time>2026-04-03T14:32:21.221Z</time></trkpt><trkpt lat="44.3558395" lon="7.7477777"><ele>569.0</ele><time>2026-04-03T14:32:22.221Z</time></trkpt><trkpt lat="44.3559774" lon="7.747561"><ele>568.0</ele><time>2026-04-03T14:32:23.221Z</time></trkpt><trkpt lat="44.3561099" lon="7.7473403"><ele>567.0</ele><time>2026-04-03T14:32:24.221Z</time></trkpt><trkpt lat="44.3562389" lon="7.7471125"><ele>566.0</ele><time>2026-04-03T14:32:25.221Z</time></trkpt><trkpt lat="44.3563588" lon="7.7468865"><ele>566.3333333333333</ele><time>2026-04-03T14:32:26.227Z</time></trkpt><trkpt lat="44.3564747" lon="7.7466549"><ele>566.6666666666666</ele><time>2026-04-03T14:32:27.22Z</time></trkpt><trkpt lat="44.3565913" lon="7.7464222"><ele>567.0</ele><time>2026-04-03T14:32:28.22Z</time></trkpt><trkpt lat="44.3567116" lon="7.7461889"><ele>566.3333333333334</ele><time>2026-04-03T14:32:29.218Z</time></trkpt><trkpt lat="44.3568217" lon="7.745977"><ele>565.6666666666667</ele><time>2026-04-03T14:32:30.22Z</time></trkpt><trkpt lat="44.3569226" lon="7.7457757"><ele>565.0</ele><time>2026-04-03T14:32:31.22Z</time></trkpt><trkpt lat="44.3570248" lon="7.7455748"><ele>565.0</ele><time>2026-04-03T14:32:32.22Z</time></trkpt><trkpt lat="44.357129" lon="7.7453785"><ele>565.0</ele><time>2026-04-03T14:32:33.218Z</time></trkpt><trkpt lat="44.3572353" lon="7.7451814"><ele>565.0</ele><time>2026-04-03T14:32:34.221Z</time></trkpt><trkpt lat="44.3573401" lon="7.7449785"><ele>564.6666666666667</ele><time>2026-04-03T14:32:35.222Z</time></trkpt><trkpt lat="44.3574468" lon="7.7447718"><ele>564.3333333333334</ele><time>2026-04-03T14:32:36.22Z</time></trkpt><trkpt lat="44.3575569" lon="7.7445623"><ele>564.0</ele><time>2026-04-03T14:32:37.226Z</time></trkpt><trkpt lat="44.3576673" lon="7.7443509"><ele>564.0</ele><time>2026-04-03T14:32:38.221Z</time></trkpt><trkpt lat="44.3577808" lon="7.7441298"><ele>564.0</ele><time>2026-04-03T14:32:39.222Z</time></trkpt><trkpt lat="44.3578994" lon="7.7439084"><ele>564.0</ele><time>2026-04-03T14:32:40.22Z</time></trkpt><trkpt lat="44.3580208" lon="7.743678"><ele>564.3333333333334</ele><time>2026-04-03T14:32:41.225Z</time></trkpt><trkpt lat="44.3581433" lon="7.7434452"><ele>564.6666666666667</ele><time>2026-04-03T14:32:42.222Z</time></trkpt><trkpt lat="44.3582688" lon="7.7432081"><ele>565.0</ele><time>2026-04-03T14:32:43.224Z</time></trkpt><trkpt lat="44.3583906" lon="7.742977"><ele>565.0</ele><time>2026-04-03T14:32:44.219Z</time></trkpt><trkpt lat="44.3585088" lon="7.7427403"><ele>565.0</ele><time>2026-04-03T14:32:45.223Z</time></trkpt><trkpt lat="44.35863" lon="7.7425109"><ele>565.0</ele><time>2026-04-03T14:32:46.226Z</time></trkpt><trkpt lat="44.3587513" lon="7.7422901"><ele>564.3333333333334</ele><time>2026-04-03T14:32:47.222Z</time></trkpt><trkpt lat="44.3588746" lon="7.7420658"><ele>563.6666666666666</ele><time>2026-04-03T14:32:48.218Z</time></trkpt><trkpt lat="44.3589923" lon="7.7418402"><ele>563.0</ele><time>2026-04-03T14:32:49.219Z</time></trkpt><trkpt lat="44.3591106" lon="7.7416207"><ele>561.0</ele><time>2026-04-03T14:32:50.22Z</time></trkpt><trkpt lat="44.3592229" lon="7.7414104"><ele>559.0</ele><time>2026-04-03T14:32:51.221Z</time></trkpt><trkpt lat="44.3593254" lon="7.7411902"><ele>557.0</ele><time>2026-04-03T14:32:52.226Z</time></trkpt><trkpt lat="44.3594127" lon="7.7409497"><ele>555.0</ele><time>2026-04-03T14:32:53.219Z</time></trkpt><trkpt lat="44.3594674" lon="7.7406796"><ele>553.0</ele><time>2026-04-03T14:32:54.227Z</time></trkpt><trkpt lat="44.359491" lon="7.7404207"><ele>551.0</ele><time>2026-04-03T14:32:55.222Z</time></trkpt><trkpt lat="44.3594897" lon="7.7401557"><ele>549.6666666666666</ele><time>2026-04-03T14:32:56.22Z</time></trkpt><trkpt lat="44.3594568" lon="7.739882"><ele>548.3333333333334</ele><time>2026-04-03T14:32:57.219Z</time></trkpt><trkpt lat="44.359386" lon="7.7396176"><ele>547.0</ele><time>2026-04-03T14:32:58.23Z</time></trkpt><trkpt lat="44.3592991" lon="7.7393796"><ele>547.0</ele><time>2026-04-03T14:32:59.225Z</time></trkpt><trkpt lat="44.3592227" lon="7.7391537"><ele>547.0</ele><time>2026-04-03T14:33:00.222Z</time></trkpt><trkpt lat="44.3591688" lon="7.7389404"><ele>547.0</ele><time>2026-04-03T14:33:01.219Z</time></trkpt><trkpt lat="44.3591223" lon="7.7387358"><ele>546.5</ele><time>2026-04-03T14:33:02.222Z</time></trkpt><trkpt lat="44.3591087" lon="7.7385366"><ele>546.0</ele><time>2026-04-03T14:33:03.223Z</time></trkpt><trkpt lat="44.3591303" lon="7.7383495"><ele>545.5</ele><time>2026-04-03T14:33:04.226Z</time></trkpt><trkpt lat="44.3591809" lon="7.7381623"><ele>545.0</ele><time>2026-04-03T14:33:05.219Z</time></trkpt><trkpt lat="44.3592879" lon="7.7380108"><ele>545.0</ele><time>2026-04-03T14:33:06.221Z</time></trkpt><trkpt lat="44.359407" lon="7.7378784"><ele>545.0</ele><time>2026-04-03T14:33:07.219Z</time></trkpt><trkpt lat="44.3595469" lon="7.737765"><ele>545.0</ele><time>2026-04-03T14:33:08.217Z</time></trkpt><trkpt lat="44.3596879" lon="7.737649"><ele>543.3333333333333</ele><time>2026-04-03T14:33:09.222Z</time></trkpt><trkpt lat="44.3598403" lon="7.7375145"><ele>541.6666666666666</ele><time>2026-04-03T14:33:10.219Z</time></trkpt><trkpt lat="44.359991" lon="7.7373665"><ele>540.0</ele><time>2026-04-03T14:33:11.226Z</time></trkpt><trkpt lat="44.3601347" lon="7.7372139"><ele>540.0</ele><time>2026-04-03T14:33:12.226Z</time></trkpt><trkpt lat="44.3602715" lon="7.7370755"><ele>540.0</ele><time>2026-04-03T14:33:13.22Z</time></trkpt><trkpt lat="44.3603974" lon="7.73694"><ele>540.0</ele><time>2026-04-03T14:33:14.221Z</time></trkpt><trkpt lat="44.3605279" lon="7.7368113"><ele>537.6666666666666</ele><time>2026-04-03T14:33:15.224Z</time></trkpt><trkpt lat="44.3606595" lon="7.7366726"><ele>535.3333333333333</ele><time>2026-04-03T14:33:16.22Z</time></trkpt><trkpt lat="44.3607872" lon="7.7365307"><ele>533.0</ele><time>2026-04-03T14:33:17.224Z</time></trkpt><trkpt lat="44.3609229" lon="7.7363919"><ele>533.0</ele><time>2026-04-03T14:33:18.222Z</time></trkpt><trkpt lat="44.3610638" lon="7.7362451"><ele>533.0</ele><time>2026-04-03T14:33:19.22Z</time></trkpt><trkpt lat="44.3612094" lon="7.7360957"><ele>533.0</ele><time>2026-04-03T14:33:20.226Z</time></trkpt><trkpt lat="44.3613584" lon="7.7359309"><ele>531.6666666666666</ele><time>2026-04-03T14:33:21.216Z</time></trkpt><trkpt lat="44.3615044" lon="7.7357557"><ele>530.3333333333334</ele><time>2026-04-03T14:33:22.219Z</time></trkpt><trkpt lat="44.3616546" lon="7.7355741"><ele>529.0</ele><time>2026-04-03T14:33:23.223Z</time></trkpt><trkpt lat="44.3618057" lon="7.7353823"><ele>528.0</ele><time>2026-04-03T14:33:24.228Z</time></trkpt><trkpt lat="44.3619562" lon="7.7351875"><ele>527.0</ele><time>2026-04-03T14:33:25.224Z</time></trkpt><trkpt lat="44.3621015" lon="7.7349893"><ele>526.0</ele><time>2026-04-03T14:33:26.219Z</time></trkpt><trkpt lat="44.3622452" lon="7.7347781"><ele>526.0</ele><time>2026-04-03T14:33:27.229Z</time></trkpt><trkpt lat="44.3623827" lon="7.7345749"><ele>526.0</ele><time>2026-04-03T14:33:28.221Z</time></trkpt><trkpt lat="44.362532" lon="7.7343924"><ele>526.0</ele><time>2026-04-03T14:33:29.22Z</time></trkpt><trkpt lat="44.3626816" lon="7.7342242"><ele>524.0</ele><time>2026-04-03T14:33:30.223Z</time></trkpt><trkpt lat="44.3628337" lon="7.7340674"><ele>522.0</ele><time>2026-04-03T14:33:31.223Z</time></trkpt><trkpt lat="44.3629894" lon="7.7339165"><ele>520.0</ele><time>2026-04-03T14:33:32.218Z</time></trkpt><trkpt lat="44.363142" lon="7.733768"><ele>520.0</ele><time>2026-04-03T14:33:33.225Z</time></trkpt><trkpt lat="44.3632943" lon="7.7336188"><ele>520.0</ele><time>2026-04-03T14:33:34.223Z</time></trkpt><trkpt lat="44.3634463" lon="7.7334601"><ele>520.0</ele><time>2026-04-03T14:33:35.223Z</time></trkpt><trkpt lat="44.3635973" lon="7.7332957"><ele>520.0</ele><time>2026-04-03T14:33:36.221Z</time></trkpt><trkpt lat="44.3637406" lon="7.7331116"><ele>520.0</ele><time>2026-04-03T14:33:37.218Z</time></trkpt><trkpt lat="44.3638772" lon="7.7329167"><ele>520.0</ele><time>2026-04-03T14:33:38.225Z</time></trkpt><trkpt lat="44.3640104" lon="7.7327134"><ele>516.6666666666667</ele><time>2026-04-03T14:33:39.218Z</time></trkpt><trkpt lat="44.3641349" lon="7.7324946"><ele>513.3333333333334</ele><time>2026-04-03T14:33:40.218Z</time></trkpt><trkpt lat="44.3642525" lon="7.7322664"><ele>510.0</ele><time>2026-04-03T14:33:41.223Z</time></trkpt><trkpt lat="44.364374" lon="7.7320335"><ele>511.33333333333337</ele><time>2026-04-03T14:33:42.222Z</time></trkpt><trkpt lat="44.3644976" lon="7.7318013"><ele>512.6666666666667</ele><time>2026-04-03T14:33:43.219Z</time></trkpt><trkpt lat="44.3646209" lon="7.7315673"><ele>514.0</ele><time>2026-04-03T14:33:44.22Z</time></trkpt><trkpt lat="44.3647453" lon="7.731332"><ele>514.0</ele><time>2026-04-03T14:33:45.219Z</time></trkpt><trkpt lat="44.3648701" lon="7.7310968"><ele>514.0</ele><time>2026-04-03T14:33:46.215Z</time></trkpt><trkpt lat="44.3649934" lon="7.7308624"><ele>514.0</ele><time>2026-04-03T14:33:47.223Z</time></trkpt><trkpt lat="44.3651183" lon="7.7306314"><ele>510.0</ele><time>2026-04-03T14:33:48.22Z</time></trkpt><trkpt lat="44.3652385" lon="7.7304"><ele>506.0</ele><time>2026-04-03T14:33:49.216Z</time></trkpt><trkpt lat="44.3653431" lon="7.7301804"><ele>502.0</ele><time>2026-04-03T14:33:50.219Z</time></trkpt><trkpt lat="44.3654355" lon="7.7299659"><ele>502.0</ele><time>2026-04-03T14:33:51.219Z</time></trkpt><trkpt lat="44.3655087" lon="7.729767"><ele>502.0</ele><time>2026-04-03T14:33:52.217Z</time></trkpt><trkpt lat="44.3655663" lon="7.7295925"><ele>502.0</ele><time>2026-04-03T14:33:53.219Z</time></trkpt><trkpt lat="44.3656131" lon="7.729449"><ele>502.0</ele><time>2026-04-03T14:33:54.218Z</time></trkpt><trkpt lat="44.3656544" lon="7.7293174"><ele>502.00000000000006</ele><time>2026-04-03T14:33:55.222Z</time></trkpt><trkpt lat="44.3656888" lon="7.7292037"><ele>502.0</ele><time>2026-04-03T14:33:56.223Z</time></trkpt><trkpt lat="44.3657035" lon="7.7291077"><ele>502.0</ele><time>2026-04-03T14:33:57.218Z</time></trkpt><trkpt lat="44.3656999" lon="7.729017"><ele>502.0</ele><time>2026-04-03T14:33:58.218Z</time></trkpt><trkpt lat="44.365669" lon="7.728938"><ele>502.00000000000006</ele><time>2026-04-03T14:33:59.222Z</time></trkpt><trkpt lat="44.3656149" lon="7.7288505"><ele>502.0</ele><time>2026-04-03T14:34:00.22Z</time></trkpt><trkpt lat="44.3655393" lon="7.7287629"><ele>500.20000000000005</ele><time>2026-04-03T14:34:01.226Z</time></trkpt><trkpt lat="44.3654642" lon="7.7286708"><ele>498.40000000000003</ele><time>2026-04-03T14:34:02.219Z</time></trkpt><trkpt lat="44.3653871" lon="7.7285684"><ele>496.59999999999997</ele><time>2026-04-03T14:34:03.222Z</time></trkpt><trkpt lat="44.365314" lon="7.7284734"><ele>494.79999999999995</ele><time>2026-04-03T14:34:04.218Z</time></trkpt><trkpt lat="44.3652538" lon="7.7283888"><ele>493.0</ele><time>2026-04-03T14:34:05.22Z</time></trkpt><trkpt lat="44.3651981" lon="7.7283169"><ele>493.0</ele><time>2026-04-03T14:34:06.22Z</time></trkpt><trkpt lat="44.36511" lon="7.7282074"><ele>492.99999999999994</ele><time>2026-04-03T14:34:08.219Z</time></trkpt><trkpt lat="44.3650415" lon="7.7281125"><ele>492.99999999999994</ele><time>2026-04-03T14:34:10.22Z</time></trkpt><trkpt lat="44.3649834" lon="7.7280451"><ele>493.0</ele><time>2026-04-03T14:34:11.224Z</time></trkpt><trkpt lat="44.3649074" lon="7.7279641"><ele>493.0</ele><time>2026-04-03T14:34:12.229Z</time></trkpt><trkpt lat="44.3648196" lon="7.7278793"><ele>493.0</ele><time>2026-04-03T14:34:13.222Z</time></trkpt><trkpt lat="44.3647258" lon="7.727803"><ele>492.99999999999994</ele><time>2026-04-03T14:34:14.219Z</time></trkpt><trkpt lat="44.3646287" lon="7.7277419"><ele>492.99999999999994</ele><time>2026-04-03T14:34:15.223Z</time></trkpt><trkpt lat="44.3645506" lon="7.7276879"><ele>493.0</ele><time>2026-04-03T14:34:16.222Z</time></trkpt><trkpt lat="44.3644783" lon="7.7276473"><ele>493.0</ele><time>2026-04-03T14:34:17.224Z</time></trkpt><trkpt lat="44.3644092" lon="7.7276345"><ele>494.4</ele><time>2026-04-03T14:34:18.224Z</time></trkpt><trkpt lat="44.3643343" lon="7.7276303"><ele>495.79999999999995</ele><time>2026-04-03T14:34:19.223Z</time></trkpt><trkpt lat="44.3642303" lon="7.7276667"><ele>497.2</ele><time>2026-04-03T14:34:20.224Z</time></trkpt><trkpt lat="44.3641298" lon="7.7276938"><ele>498.6</ele><time>2026-04-03T14:34:21.221Z</time></trkpt><trkpt lat="44.3639993" lon="7.7277173"><ele>500.0</ele><time>2026-04-03T14:34:22.221Z</time></trkpt><trkpt lat="44.3638839" lon="7.7277522"><ele>503.2</ele><time>2026-04-03T14:34:23.221Z</time></trkpt><trkpt lat="44.363775" lon="7.7277656"><ele>506.4</ele><time>2026-04-03T14:34:24.222Z</time></trkpt><trkpt lat="44.3636653" lon="7.7277886"><ele>509.6</ele><time>2026-04-03T14:34:25.221Z</time></trkpt><trkpt lat="44.3635642" lon="7.7278341"><ele>512.8</ele><time>2026-04-03T14:34:26.217Z</time></trkpt><trkpt lat="44.3634585" lon="7.7279005"><ele>516.0</ele><time>2026-04-03T14:34:27.22Z</time></trkpt><trkpt lat="44.3633492" lon="7.7279547"><ele>516.0</ele><time>2026-04-03T14:34:28.219Z</time></trkpt><trkpt lat="44.3632477" lon="7.7279862"><ele>516.0</ele><time>2026-04-03T14:34:29.22Z</time></trkpt><trkpt lat="44.3631594" lon="7.7280076"><ele>516.0</ele><time>2026-04-03T14:34:30.226Z</time></trkpt><trkpt lat="44.3630887" lon="7.7280098"><ele>516.0</ele><time>2026-04-03T14:34:31.219Z</time></trkpt><trkpt lat="44.3629999" lon="7.7278679"><ele>516.0</ele><time>2026-04-03T14:34:33.228Z</time></trkpt><trkpt lat="44.3629594" lon="7.727765"><ele>517.2</ele><time>2026-04-03T14:34:34.23Z</time></trkpt><trkpt lat="44.3629083" lon="7.7276128"><ele>518.4000000000001</ele><time>2026-04-03T14:34:35.224Z</time></trkpt><trkpt lat="44.3628804" lon="7.727513"><ele>519.6</ele><time>2026-04-03T14:34:36.219Z</time></trkpt><trkpt lat="44.3628332" lon="7.727443"><ele>520.8000000000001</ele><time>2026-04-03T14:34:37.22Z</time></trkpt><trkpt lat="44.3627131" lon="7.7273568"><ele>522.0</ele><time>2026-04-03T14:34:39.22Z</time></trkpt><trkpt lat="44.3626225" lon="7.7273389"><ele>522.0</ele><time>2026-04-03T14:34:40.22Z</time></trkpt><trkpt lat="44.3625139" lon="7.7273379"><ele>522.0</ele><time>2026-04-03T14:34:41.221Z</time></trkpt><trkpt lat="44.3624001" lon="7.7273321"><ele>522.0</ele><time>2026-04-03T14:34:42.225Z</time></trkpt><trkpt lat="44.3622578" lon="7.7273095"><ele>522.0</ele><time>2026-04-03T14:34:43.226Z</time></trkpt><trkpt lat="44.3621561" lon="7.7272774"><ele>525.0</ele><time>2026-04-03T14:34:44.226Z</time></trkpt><trkpt lat="44.3620742" lon="7.7272671"><ele>528.0</ele><time>2026-04-03T14:34:45.22Z</time></trkpt><trkpt lat="44.361984" lon="7.72726"><ele>531.0</ele><time>2026-04-03T14:34:46.22Z</time></trkpt><trkpt lat="44.3619089" lon="7.727248"><ele>534.0</ele><time>2026-04-03T14:34:47.222Z</time></trkpt><trkpt lat="44.3618414" lon="7.7272677"><ele>537.0</ele><time>2026-04-03T14:34:48.225Z</time></trkpt><trkpt lat="44.3617717" lon="7.7273129"><ele>540.0</ele><time>2026-04-03T14:34:49.219Z</time></trkpt><trkpt lat="44.3617487" lon="7.7274152"><ele>540.0</ele><time>2026-04-03T14:34:50.22Z</time></trkpt><trkpt lat="44.3617919" lon="7.72757"><ele>540.0</ele><time>2026-04-03T14:34:51.221Z</time></trkpt><trkpt lat="44.3617597" lon="7.7276554"><ele>540.0</ele><time>2026-04-03T14:34:52.225Z</time></trkpt><trkpt lat="44.3616601" lon="7.7277503"><ele>540.0</ele><time>2026-04-03T14:34:54.22Z</time></trkpt><trkpt lat="44.3615713" lon="7.7278086"><ele>540.0</ele><time>2026-04-03T14:34:55.223Z</time></trkpt><trkpt lat="44.3614703" lon="7.7278816"><ele>539.2</ele><time>2026-04-03T14:34:56.222Z</time></trkpt><trkpt lat="44.3613848" lon="7.7279766"><ele>538.4</ele><time>2026-04-03T14:34:57.222Z</time></trkpt><trkpt lat="44.3613312" lon="7.7280667"><ele>537.6</ele><time>2026-04-03T14:34:58.22Z</time></trkpt><trkpt lat="44.3612705" lon="7.7281834"><ele>536.8</ele><time>2026-04-03T14:34:59.218Z</time></trkpt><trkpt lat="44.3612306" lon="7.7282956"><ele>536.0</ele><time>2026-04-03T14:35:00.224Z</time></trkpt><trkpt lat="44.3612083" lon="7.7284329"><ele>539.0</ele><time>2026-04-03T14:35:01.219Z</time></trkpt><trkpt lat="44.3611468" lon="7.7285418"><ele>542.0</ele><time>2026-04-03T14:35:03.225Z</time></trkpt><trkpt lat="44.3610775" lon="7.7285961"><ele>545.0</ele><time>2026-04-03T14:35:05.219Z</time></trkpt><trkpt lat="44.3609014" lon="7.7285221"><ele>548.0</ele><time>2026-04-03T14:35:07.23Z</time></trkpt><trkpt lat="44.3608169" lon="7.728449"><ele>548.0</ele><time>2026-04-03T14:35:08.232Z</time></trkpt><trkpt lat="44.360733" lon="7.7283585"><ele>548.0</ele><time>2026-04-03T14:35:09.219Z</time></trkpt><trkpt lat="44.3606378" lon="7.7282759"><ele>548.0</ele><time>2026-04-03T14:35:10.224Z</time></trkpt><trkpt lat="44.3605322" lon="7.7281668"><ele>548.0</ele><time>2026-04-03T14:35:11.261Z</time></trkpt><trkpt lat="44.36043" lon="7.7280645"><ele>551.25</ele><time>2026-04-03T14:35:12.219Z</time></trkpt><trkpt lat="44.3603271" lon="7.7279516"><ele>554.5</ele><time>2026-04-03T14:35:13.224Z</time></trkpt><trkpt lat="44.3602163" lon="7.727837"><ele>557.75</ele><time>2026-04-03T14:35:14.22Z</time></trkpt><trkpt lat="44.3600988" lon="7.7277351"><ele>561.0</ele><time>2026-04-03T14:35:15.22Z</time></trkpt><trkpt lat="44.360005" lon="7.7276508"><ele>561.8333333333334</ele><time>2026-04-03T14:35:16.228Z</time></trkpt><trkpt lat="44.3599298" lon="7.7275976"><ele>562.6666666666666</ele><time>2026-04-03T14:35:17.222Z</time></trkpt><trkpt lat="44.3598735" lon="7.7275428"><ele>563.5</ele><time>2026-04-03T14:35:18.222Z</time></trkpt><trkpt lat="44.3597966" lon="7.7274976"><ele>564.3333333333333</ele><time>2026-04-03T14:35:20.217Z</time></trkpt><trkpt lat="44.3597102" lon="7.7275004"><ele>565.1666666666666</ele><time>2026-04-03T14:35:22.223Z</time></trkpt><trkpt lat="44.3596486" lon="7.7274422"><ele>566.0</ele><time>2026-04-03T14:35:24.231Z</time></trkpt><trkpt lat="44.3595957" lon="7.7273808"><ele>570.25</ele><time>2026-04-03T14:36:01.223Z</time></trkpt><trkpt lat="44.3595401" lon="7.72733"><ele>574.5</ele><time>2026-04-03T14:36:04.23Z</time></trkpt><trkpt lat="44.3594732" lon="7.7272857"><ele>578.75</ele><time>2026-04-03T14:36:07.221Z</time></trkpt><trkpt lat="44.3593915" lon="7.7272633"><ele>583.0</ele><time>2026-04-03T14:36:10.228Z</time></trkpt><trkpt lat="44.3587808" lon="7.7269502"><ele>585.0</ele><time>2026-04-03T14:36:11.221Z</time></trkpt><trkpt lat="44.3586983" lon="7.726853"><ele>587.0</ele><time>2026-04-03T14:36:12.217Z</time></trkpt><trkpt lat="44.3586343" lon="7.7268037"><ele>589.0</ele><time>2026-04-03T14:36:13.217Z</time></trkpt><trkpt lat="44.3585715" lon="7.7267567"><ele>591.0</ele><time>2026-04-03T14:36:14.226Z</time></trkpt><trkpt lat="44.358496" lon="7.7266933"><ele>593.0</ele><time>2026-04-03T14:36:15.222Z</time></trkpt><trkpt lat="44.3584338" lon="7.726607"><ele>595.0</ele><time>2026-04-03T14:36:16.219Z</time></trkpt><trkpt lat="44.3583533" lon="7.7264926"><ele>595.0</ele><time>2026-04-03T14:36:17.224Z</time></trkpt><trkpt lat="44.3582592" lon="7.7264415"><ele>595.0</ele><time>2026-04-03T14:36:19.223Z</time></trkpt><trkpt lat="44.358153" lon="7.7264647"><ele>595.0</ele><time>2026-04-03T14:36:21.226Z</time></trkpt><trkpt lat="44.3581177" lon="7.7266396"><ele>595.0</ele><time>2026-04-03T14:36:23.23Z</time></trkpt><trkpt lat="44.3580589" lon="7.7267692"><ele>595.0</ele><time>2026-04-03T14:36:25.226Z</time></trkpt><trkpt lat="44.3580108" lon="7.7269206"><ele>596.6666666666667</ele><time>2026-04-03T14:36:27.221Z</time></trkpt><trkpt lat="44.3580067" lon="7.7270147"><ele>598.3333333333334</ele><time>2026-04-03T14:36:28.228Z</time></trkpt><trkpt lat="44.357958" lon="7.7270865"><ele>600.0</ele><time>2026-04-03T14:36:29.23Z</time></trkpt><trkpt lat="44.3579113" lon="7.7271682"><ele>601.6666666666666</ele><time>2026-04-03T14:36:30.22Z</time></trkpt><trkpt lat="44.3578377" lon="7.7272798"><ele>603.3333333333333</ele><time>2026-04-03T14:36:31.228Z</time></trkpt><trkpt lat="44.3577934" lon="7.7274113"><ele>605.0</ele><time>2026-04-03T14:36:32.223Z</time></trkpt><trkpt lat="44.3577463" lon="7.7275583"><ele>605.0</ele><time>2026-04-03T14:36:33.222Z</time></trkpt><trkpt lat="44.357692" lon="7.7276405"><ele>605.0</ele><time>2026-04-03T14:36:34.221Z</time></trkpt><trkpt lat="44.357637" lon="7.7277518"><ele>605.0</ele><time>2026-04-03T14:36:35.22Z</time></trkpt><trkpt lat="44.3576275" lon="7.7279195"><ele>605.0</ele><time>2026-04-03T14:36:36.22Z</time></trkpt><trkpt lat="44.3575963" lon="7.7280539"><ele>605.0</ele><time>2026-04-03T14:36:37.22Z</time></trkpt><trkpt lat="44.3575741" lon="7.7281795"><ele>606.6</ele><time>2026-04-03T14:36:38.22Z</time></trkpt><trkpt lat="44.3575466" lon="7.7282984"><ele>608.2</ele><time>2026-04-03T14:36:39.226Z</time></trkpt><trkpt lat="44.3574868" lon="7.7282626"><ele>609.8</ele><time>2026-04-03T14:36:41.219Z</time></trkpt><trkpt lat="44.3574058" lon="7.7281854"><ele>611.4</ele><time>2026-04-03T14:36:45.217Z</time></trkpt><trkpt lat="44.3573293" lon="7.7281287"><ele>613.0</ele><time>2026-04-03T14:36:47.218Z</time></trkpt><trkpt lat="44.3572156" lon="7.7280535"><ele>612.1666666666667</ele><time>2026-04-03T14:36:49.226Z</time></trkpt><trkpt lat="44.3571277" lon="7.7279623"><ele>611.3333333333334</ele><time>2026-04-03T14:36:51.231Z</time></trkpt><trkpt lat="44.3570688" lon="7.7279285"><ele>610.5</ele><time>2026-04-03T14:36:52.222Z</time></trkpt><trkpt lat="44.3569908" lon="7.7278678"><ele>609.6666666666666</ele><time>2026-04-03T14:36:54.223Z</time></trkpt><trkpt lat="44.3569268" lon="7.7278276"><ele>608.8333333333333</ele><time>2026-04-03T14:36:55.221Z</time></trkpt><trkpt lat="44.3568477" lon="7.7277133"><ele>608.0</ele><time>2026-04-03T14:36:57.218Z</time></trkpt><trkpt lat="44.3567709" lon="7.7276619"><ele>608.0</ele><time>2026-04-03T14:36:58.223Z</time></trkpt><trkpt lat="44.3566973" lon="7.7276083"><ele>608.0</ele><time>2026-04-03T14:36:59.223Z</time></trkpt><trkpt lat="44.3565692" lon="7.7275942"><ele>608.0</ele><time>2026-04-03T14:37:01.218Z</time></trkpt><trkpt lat="44.3565046" lon="7.7276477"><ele>608.0</ele><time>2026-04-03T14:37:02.22Z</time></trkpt><trkpt lat="44.3564396" lon="7.7276982"><ele>608.0</ele><time>2026-04-03T14:37:03.224Z</time></trkpt><trkpt lat="44.3563502" lon="7.727728"><ele>608.4</ele><time>2026-04-03T14:37:04.224Z</time></trkpt><trkpt lat="44.356272" lon="7.7277792"><ele>608.8</ele><time>2026-04-03T14:37:05.224Z</time></trkpt><trkpt lat="44.3561778" lon="7.7277815"><ele>609.2</ele><time>2026-04-03T14:37:07.222Z</time></trkpt><trkpt lat="44.3560923" lon="7.7278787"><ele>609.6</ele><time>2026-04-03T14:37:09.218Z</time></trkpt><trkpt lat="44.356015" lon="7.7279429"><ele>610.0</ele><time>2026-04-03T14:37:10.232Z</time></trkpt><trkpt lat="44.355931" lon="7.7280305"><ele>610.0</ele><time>2026-04-03T14:37:11.232Z</time></trkpt><trkpt lat="44.3558663" lon="7.7280885"><ele>610.0</ele><time>2026-04-03T14:37:12.222Z</time></trkpt><trkpt lat="44.3557995" lon="7.7281691"><ele>610.0</ele><time>2026-04-03T14:37:13.219Z</time></trkpt><trkpt lat="44.3557317" lon="7.7282844"><ele>610.0</ele><time>2026-04-03T14:37:14.221Z</time></trkpt><trkpt lat="44.3556377" lon="7.7284218"><ele>610.0</ele><time>2026-04-03T14:37:15.221Z</time></trkpt><trkpt lat="44.3555617" lon="7.7285566"><ele>610.3333333333334</ele><time>2026-04-03T14:37:16.22Z</time></trkpt><trkpt lat="44.3554653" lon="7.7287539"><ele>610.6666666666666</ele><time>2026-04-03T14:37:17.221Z</time></trkpt><trkpt lat="44.3553821" lon="7.7289474"><ele>611.0</ele><time>2026-04-03T14:37:18.216Z</time></trkpt><trkpt lat="44.3553028" lon="7.7290962"><ele>611.0</ele><time>2026-04-03T14:37:19.221Z</time></trkpt><trkpt lat="44.35522" lon="7.7292307"><ele>611.0</ele><time>2026-04-03T14:37:20.218Z</time></trkpt><trkpt lat="44.3551606" lon="7.7293334"><ele>611.0</ele><time>2026-04-03T14:37:22.224Z</time></trkpt><trkpt lat="44.3551005" lon="7.7293888"><ele>611.0</ele><time>2026-04-03T14:37:24.218Z</time></trkpt><trkpt lat="44.3550043" lon="7.7294154"><ele>611.0</ele><time>2026-04-03T14:37:26.219Z</time></trkpt><trkpt lat="44.3549158" lon="7.7294078"><ele>611.0</ele><time>2026-04-03T14:37:27.222Z</time></trkpt><trkpt lat="44.3548497" lon="7.7293686"><ele>611.0</ele><time>2026-04-03T14:37:28.23Z</time></trkpt><trkpt lat="44.3547653" lon="7.7293491"><ele>611.0</ele><time>2026-04-03T14:37:29.223Z</time></trkpt><trkpt lat="44.3546712" lon="7.7293328"><ele>611.0</ele><time>2026-04-03T14:37:30.217Z</time></trkpt><trkpt lat="44.3545673" lon="7.7293459"><ele>611.0</ele><time>2026-04-03T14:37:31.219Z</time></trkpt><trkpt lat="44.3544833" lon="7.7293511"><ele>611.0</ele><time>2026-04-03T14:37:32.223Z</time></trkpt><trkpt lat="44.3544112" lon="7.7293608"><ele>608.8333333333333</ele><time>2026-04-03T14:37:33.221Z</time></trkpt><trkpt lat="44.3543451" lon="7.7293663"><ele>606.6666666666666</ele><time>2026-04-03T14:37:34.222Z</time></trkpt><trkpt lat="44.3542736" lon="7.7293403"><ele>604.5</ele><time>2026-04-03T14:37:35.221Z</time></trkpt><trkpt lat="44.3541835" lon="7.7293219"><ele>602.3333333333334</ele><time>2026-04-03T14:37:36.22Z</time></trkpt><trkpt lat="44.3540711" lon="7.729325"><ele>600.1666666666667</ele><time>2026-04-03T14:37:37.225Z</time></trkpt><trkpt lat="44.3539787" lon="7.7293417"><ele>598.0</ele><time>2026-04-03T14:37:38.221Z</time></trkpt><trkpt lat="44.3538856" lon="7.7293557"><ele>597.1666666666667</ele><time>2026-04-03T14:37:39.223Z</time></trkpt><trkpt lat="44.3538199" lon="7.7293541"><ele>596.3333333333334</ele><time>2026-04-03T14:37:40.22Z</time></trkpt><trkpt lat="44.3537267" lon="7.7292824"><ele>595.5</ele><time>2026-04-03T14:37:41.218Z</time></trkpt><trkpt lat="44.3536633" lon="7.729229"><ele>594.6666666666666</ele><time>2026-04-03T14:37:42.224Z</time></trkpt><trkpt lat="44.3536049" lon="7.7291782"><ele>593.8333333333333</ele><time>2026-04-03T14:37:43.221Z</time></trkpt><trkpt lat="44.3535637" lon="7.7290313"><ele>593.0</ele><time>2026-04-03T14:37:45.223Z</time></trkpt><trkpt lat="44.3535759" lon="7.7289039"><ele>593.0</ele><time>2026-04-03T14:37:47.224Z</time></trkpt><trkpt lat="44.3535093" lon="7.7288784"><ele>593.0</ele><time>2026-04-03T14:37:50.222Z</time></trkpt><trkpt lat="44.3534415" lon="7.7288714"><ele>593.0</ele><time>2026-04-03T14:37:53.227Z</time></trkpt><trkpt lat="44.3533765" lon="7.7287891"><ele>593.0</ele><time>2026-04-03T14:37:56.224Z</time></trkpt><trkpt lat="44.3533199" lon="7.7286775"><ele>593.0</ele><time>2026-04-03T14:37:59.22Z</time></trkpt><trkpt lat="44.3532652" lon="7.7285889"><ele>593.0</ele><time>2026-04-03T14:38:01.221Z</time></trkpt><trkpt lat="44.3532071" lon="7.7284456"><ele>593.0</ele><time>2026-04-03T14:38:03.226Z</time></trkpt><trkpt lat="44.3531628" lon="7.7283212"><ele>593.0</ele><time>2026-04-03T14:38:04.238Z</time></trkpt><trkpt lat="44.3531163" lon="7.7281793"><ele>593.0</ele><time>2026-04-03T14:38:05.227Z</time></trkpt><trkpt lat="44.3529408" lon="7.7278273"><ele>593.6666666666666</ele><time>2026-04-03T14:38:06.223Z</time></trkpt><trkpt lat="44.3528845" lon="7.7276012"><ele>594.3333333333334</ele><time>2026-04-03T14:38:07.22Z</time></trkpt><trkpt lat="44.3528562" lon="7.7273426"><ele>595.0</ele><time>2026-04-03T14:38:08.223Z</time></trkpt><trkpt lat="44.3527889" lon="7.7270702"><ele>594.6666666666667</ele><time>2026-04-03T14:38:09.223Z</time></trkpt><trkpt lat="44.3527288" lon="7.7267581"><ele>594.3333333333334</ele><time>2026-04-03T14:38:10.218Z</time></trkpt><trkpt lat="44.3527003" lon="7.7265509"><ele>594.0</ele><time>2026-04-03T14:38:11.219Z</time></trkpt><trkpt lat="44.3526831" lon="7.7263617"><ele>594.0</ele><time>2026-04-03T14:38:12.218Z</time></trkpt><trkpt lat="44.3526635" lon="7.7262062"><ele>594.0</ele><time>2026-04-03T14:38:13.229Z</time></trkpt><trkpt lat="44.3526327" lon="7.7260843"><ele>594.0</ele><time>2026-04-03T14:38:14.232Z</time></trkpt><trkpt lat="44.3526039" lon="7.7259642"><ele>594.0</ele><time>2026-04-03T14:38:15.219Z</time></trkpt><trkpt lat="44.3525849" lon="7.7258166"><ele>594.0</ele><time>2026-04-03T14:38:16.218Z</time></trkpt><trkpt lat="44.352569" lon="7.7256693"><ele>593.25</ele><time>2026-04-03T14:38:17.218Z</time></trkpt><trkpt lat="44.3525487" lon="7.7255438"><ele>592.5</ele><time>2026-04-03T14:38:18.224Z</time></trkpt><trkpt lat="44.3525641" lon="7.7253384"><ele>591.75</ele><time>2026-04-03T14:38:20.218Z</time></trkpt><trkpt lat="44.352605" lon="7.7251944"><ele>591.0</ele><time>2026-04-03T14:38:21.224Z</time></trkpt><trkpt lat="44.3526351" lon="7.7250492"><ele>590.8</ele><time>2026-04-03T14:38:22.219Z</time></trkpt><trkpt lat="44.3526451" lon="7.7249013"><ele>590.6</ele><time>2026-04-03T14:38:23.221Z</time></trkpt><trkpt lat="44.3526379" lon="7.7247494"><ele>590.4</ele><time>2026-04-03T14:38:24.222Z</time></trkpt><trkpt lat="44.352621" lon="7.7246149"><ele>590.2</ele><time>2026-04-03T14:38:25.22Z</time></trkpt><trkpt lat="44.3526169" lon="7.7244988"><ele>590.0</ele><time>2026-04-03T14:38:26.225Z</time></trkpt><trkpt lat="44.3526125" lon="7.7242799"><ele>590.0</ele><time>2026-04-03T14:38:28.22Z</time></trkpt><trkpt lat="44.3525905" lon="7.7241493"><ele>590.0</ele><time>2026-04-03T14:38:29.22Z</time></trkpt><trkpt lat="44.3524935" lon="7.7240075"><ele>590.0</ele><time>2026-04-03T14:38:30.225Z</time></trkpt><trkpt lat="44.3524016" lon="7.723872"><ele>590.0</ele><time>2026-04-03T14:38:31.223Z</time></trkpt><trkpt lat="44.3523048" lon="7.7237679"><ele>590.0</ele><time>2026-04-03T14:38:32.219Z</time></trkpt><trkpt lat="44.3522229" lon="7.7236842"><ele>590.0</ele><time>2026-04-03T14:38:33.224Z</time></trkpt><trkpt lat="44.3521771" lon="7.7235807"><ele>590.0</ele><time>2026-04-03T14:38:34.217Z</time></trkpt><trkpt lat="44.3521095" lon="7.7234636"><ele>590.0</ele><time>2026-04-03T14:38:35.227Z</time></trkpt><trkpt lat="44.3520353" lon="7.7233481"><ele>590.0</ele><time>2026-04-03T14:38:36.219Z</time></trkpt><trkpt lat="44.3519613" lon="7.7232752"><ele>592.1666666666666</ele><time>2026-04-03T14:38:37.218Z</time></trkpt><trkpt lat="44.3518836" lon="7.7231949"><ele>594.3333333333333</ele><time>2026-04-03T14:38:38.224Z</time></trkpt><trkpt lat="44.3518361" lon="7.7231241"><ele>596.5</ele><time>2026-04-03T14:38:39.218Z</time></trkpt><trkpt lat="44.3517905" lon="7.7230192"><ele>598.6666666666666</ele><time>2026-04-03T14:38:40.218Z</time></trkpt><trkpt lat="44.351744" lon="7.7228974"><ele>600.8333333333334</ele><time>2026-04-03T14:38:41.222Z</time></trkpt><trkpt lat="44.3517197" lon="7.722777"><ele>603.0</ele><time>2026-04-03T14:38:42.219Z</time></trkpt><trkpt lat="44.3516873" lon="7.7226464"><ele>603.1666666666666</ele><time>2026-04-03T14:38:43.223Z</time></trkpt><trkpt lat="44.3516413" lon="7.7225394"><ele>603.3333333333334</ele><time>2026-04-03T14:38:44.221Z</time></trkpt><trkpt lat="44.3515805" lon="7.7224453"><ele>603.5</ele><time>2026-04-03T14:38:45.221Z</time></trkpt><trkpt lat="44.3515367" lon="7.7223484"><ele>603.6666666666667</ele><time>2026-04-03T14:38:46.218Z</time></trkpt><trkpt lat="44.3514803" lon="7.7222471"><ele>603.8333333333334</ele><time>2026-04-03T14:38:47.218Z</time></trkpt><trkpt lat="44.3514161" lon="7.722154"><ele>604.0</ele><time>2026-04-03T14:38:48.226Z</time></trkpt><trkpt lat="44.3513916" lon="7.7220677"><ele>601.4</ele><time>2026-04-03T14:38:49.22Z</time></trkpt><trkpt lat="44.3513501" lon="7.7219579"><ele>598.8</ele><time>2026-04-03T14:38:50.226Z</time></trkpt><trkpt lat="44.3513317" lon="7.7218472"><ele>596.2</ele><time>2026-04-03T14:38:51.218Z</time></trkpt><trkpt lat="44.3513137" lon="7.7217002"><ele>593.6</ele><time>2026-04-03T14:38:52.22Z</time></trkpt><trkpt lat="44.3513138" lon="7.7215779"><ele>591.0</ele><time>2026-04-03T14:38:53.224Z</time></trkpt><trkpt lat="44.3512657" lon="7.7214333"><ele>590.5</ele><time>2026-04-03T14:38:54.228Z</time></trkpt><trkpt lat="44.351205" lon="7.7213396"><ele>590.0</ele><time>2026-04-03T14:38:56.221Z</time></trkpt><trkpt lat="44.3511142" lon="7.7212919"><ele>589.5</ele><time>2026-04-03T14:39:01.224Z</time></trkpt><trkpt lat="44.351017" lon="7.7212569"><ele>589.0</ele><time>2026-04-03T14:39:02.226Z</time></trkpt><trkpt lat="44.3508326" lon="7.7211764"><ele>589.0</ele><time>2026-04-03T14:39:03.221Z</time></trkpt><trkpt lat="44.3507298" lon="7.7211005"><ele>589.0</ele><time>2026-04-03T14:39:04.223Z</time></trkpt><trkpt lat="44.3506426" lon="7.7210341"><ele>589.0</ele><time>2026-04-03T14:39:05.223Z</time></trkpt><trkpt lat="44.35054" lon="7.7209471"><ele>589.0</ele><time>2026-04-03T14:39:06.221Z</time></trkpt><trkpt lat="44.3504631" lon="7.7208564"><ele>589.0</ele><time>2026-04-03T14:39:07.219Z</time></trkpt><trkpt lat="44.350386" lon="7.7207809"><ele>590.0</ele><time>2026-04-03T14:39:08.217Z</time></trkpt><trkpt lat="44.350297" lon="7.7207339"><ele>591.0</ele><time>2026-04-03T14:39:09.225Z</time></trkpt><trkpt lat="44.3501996" lon="7.7206804"><ele>592.0</ele><time>2026-04-03T14:39:10.226Z</time></trkpt><trkpt lat="44.3500731" lon="7.7206998"><ele>593.0</ele><time>2026-04-03T14:39:11.224Z</time></trkpt><trkpt lat="44.3499649" lon="7.7206972"><ele>594.0</ele><time>2026-04-03T14:39:12.218Z</time></trkpt><trkpt lat="44.3498683" lon="7.7207666"><ele>594.0</ele><time>2026-04-03T14:39:13.216Z</time></trkpt><trkpt lat="44.3498044" lon="7.7208541"><ele>594.0</ele><time>2026-04-03T14:39:14.221Z</time></trkpt><trkpt lat="44.3497057" lon="7.7209182"><ele>594.0</ele><time>2026-04-03T14:39:15.221Z</time></trkpt><trkpt lat="44.3496026" lon="7.7209544"><ele>594.0</ele><time>2026-04-03T14:39:16.225Z</time></trkpt><trkpt lat="44.3495004" lon="7.7209743"><ele>594.0</ele><time>2026-04-03T14:39:17.229Z</time></trkpt><trkpt lat="44.349408" lon="7.7210297"><ele>594.5</ele><time>2026-04-03T14:39:18.225Z</time></trkpt><trkpt lat="44.3493388" lon="7.7210895"><ele>595.0</ele><time>2026-04-03T14:39:19.218Z</time></trkpt><trkpt lat="44.3492228" lon="7.7210963"><ele>595.5</ele><time>2026-04-03T14:39:20.217Z</time></trkpt><trkpt lat="44.3490601" lon="7.721132"><ele>596.0</ele><time>2026-04-03T14:39:21.216Z</time></trkpt><trkpt lat="44.3489174" lon="7.7211581"><ele>596.4</ele><time>2026-04-03T14:39:22.22Z</time></trkpt><trkpt lat="44.3487998" lon="7.7211974"><ele>596.8</ele><time>2026-04-03T14:39:23.223Z</time></trkpt><trkpt lat="44.348723" lon="7.7212208"><ele>597.1999999999999</ele><time>2026-04-03T14:39:24.224Z</time></trkpt><trkpt lat="44.3486346" lon="7.7212444"><ele>597.6</ele><time>2026-04-03T14:39:25.22Z</time></trkpt><trkpt lat="44.3485429" lon="7.7212504"><ele>598.0</ele><time>2026-04-03T14:39:26.22Z</time></trkpt><trkpt lat="44.3484516" lon="7.7212386"><ele>598.0</ele><time>2026-04-03T14:39:27.229Z</time></trkpt><trkpt lat="44.3483712" lon="7.7211652"><ele>598.0</ele><time>2026-04-03T14:39:28.225Z</time></trkpt><trkpt lat="44.3482641" lon="7.7211227"><ele>598.0</ele><time>2026-04-03T14:39:29.223Z</time></trkpt><trkpt lat="44.348164" lon="7.7210774"><ele>598.0</ele><time>2026-04-03T14:39:30.221Z</time></trkpt><trkpt lat="44.3480647" lon="7.7210399"><ele>598.0</ele><time>2026-04-03T14:39:31.218Z</time></trkpt><trkpt lat="44.3479717" lon="7.7210119"><ele>598.3333333333334</ele><time>2026-04-03T14:39:32.225Z</time></trkpt><trkpt lat="44.3478922" lon="7.7209406"><ele>598.6666666666667</ele><time>2026-04-03T14:39:33.221Z</time></trkpt><trkpt lat="44.3478222" lon="7.7208798"><ele>599.0</ele><time>2026-04-03T14:39:34.219Z</time></trkpt><trkpt lat="44.3477583" lon="7.7207806"><ele>599.3333333333334</ele><time>2026-04-03T14:39:35.22Z</time></trkpt><trkpt lat="44.3477046" lon="7.7207178"><ele>599.6666666666666</ele><time>2026-04-03T14:39:36.217Z</time></trkpt><trkpt lat="44.3476533" lon="7.7206627"><ele>600.0</ele><time>2026-04-03T14:39:37.22Z</time></trkpt><trkpt lat="44.3475895" lon="7.7206031"><ele>600.0</ele><time>2026-04-03T14:39:38.22Z</time></trkpt><trkpt lat="44.3475247" lon="7.7205303"><ele>600.0</ele><time>2026-04-03T14:39:39.226Z</time></trkpt><trkpt lat="44.3474151" lon="7.7204428"><ele>600.0</ele><time>2026-04-03T14:39:41.216Z</time></trkpt><trkpt lat="44.3473627" lon="7.7203574"><ele>600.0</ele><time>2026-04-03T14:39:42.22Z</time></trkpt><trkpt lat="44.3472717" lon="7.7202148"><ele>600.0</ele><time>2026-04-03T14:39:44.219Z</time></trkpt><trkpt lat="44.3472063" lon="7.7202095"><ele>601.4</ele><time>2026-04-03T14:39:45.218Z</time></trkpt><trkpt lat="44.3471185" lon="7.72019"><ele>602.8</ele><time>2026-04-03T14:39:46.226Z</time></trkpt><trkpt lat="44.3470289" lon="7.7201721"><ele>604.2</ele><time>2026-04-03T14:39:47.219Z</time></trkpt><trkpt lat="44.346938" lon="7.7201293"><ele>605.6</ele><time>2026-04-03T14:39:48.223Z</time></trkpt><trkpt lat="44.346816" lon="7.7200422"><ele>607.0</ele><time>2026-04-03T14:39:49.219Z</time></trkpt><trkpt lat="44.3467013" lon="7.7200013"><ele>607.0</ele><time>2026-04-03T14:39:50.219Z</time></trkpt><trkpt lat="44.3466019" lon="7.7199496"><ele>607.0</ele><time>2026-04-03T14:39:51.22Z</time></trkpt><trkpt lat="44.346517" lon="7.719905"><ele>607.0</ele><time>2026-04-03T14:39:52.22Z</time></trkpt><trkpt lat="44.3464292" lon="7.7199394"><ele>607.0</ele><time>2026-04-03T14:39:54.218Z</time></trkpt><trkpt lat="44.346306" lon="7.7199683"><ele>607.0</ele><time>2026-04-03T14:39:56.228Z</time></trkpt><trkpt lat="44.3461942" lon="7.7199475"><ele>607.0</ele><time>2026-04-03T14:39:57.224Z</time></trkpt><trkpt lat="44.3460925" lon="7.7199363"><ele>607.0</ele><time>2026-04-03T14:39:58.224Z</time></trkpt><trkpt lat="44.3459934" lon="7.7199212"><ele>607.0</ele><time>2026-04-03T14:39:59.22Z</time></trkpt><trkpt lat="44.3459023" lon="7.7199105"><ele>607.0</ele><time>2026-04-03T14:40:00.218Z</time></trkpt><trkpt lat="44.3457797" lon="7.7198601"><ele>607.0</ele><time>2026-04-03T14:40:02.218Z</time></trkpt><trkpt lat="44.3456558" lon="7.7198398"><ele>607.0</ele><time>2026-04-03T14:40:04.224Z</time></trkpt><trkpt lat="44.3455834" lon="7.7198312"><ele>607.0</ele><time>2026-04-03T14:40:05.219Z</time></trkpt><trkpt lat="44.3455144" lon="7.7198118"><ele>607.0</ele><time>2026-04-03T14:40:06.222Z</time></trkpt><trkpt lat="44.3454567" lon="7.7197577"><ele>607.0</ele><time>2026-04-03T14:40:07.22Z</time></trkpt><trkpt lat="44.3453982" lon="7.7196886"><ele>607.0</ele><time>2026-04-03T14:40:08.223Z</time></trkpt><trkpt lat="44.3453343" lon="7.7195982"><ele>607.0</ele><time>2026-04-03T14:40:09.221Z</time></trkpt><trkpt lat="44.345275" lon="7.7195036"><ele>606.5</ele><time>2026-04-03T14:40:10.218Z</time></trkpt><trkpt lat="44.345238" lon="7.7194257"><ele>606.0</ele><time>2026-04-03T14:40:11.22Z</time></trkpt><trkpt lat="44.3451942" lon="7.7193408"><ele>605.5</ele><time>2026-04-03T14:40:12.22Z</time></trkpt><trkpt lat="44.3451562" lon="7.7192522"><ele>605.0</ele><time>2026-04-03T14:40:13.221Z</time></trkpt><trkpt lat="44.3451094" lon="7.7191424"><ele>604.5</ele><time>2026-04-03T14:40:14.221Z</time></trkpt><trkpt lat="44.3450619" lon="7.7190276"><ele>604.0</ele><time>2026-04-03T14:40:15.225Z</time></trkpt><trkpt lat="44.3450304" lon="7.7188991"><ele>604.0</ele><time>2026-04-03T14:40:16.219Z</time></trkpt><trkpt lat="44.3450027" lon="7.7187759"><ele>604.0</ele><time>2026-04-03T14:40:17.224Z</time></trkpt><trkpt lat="44.3449553" lon="7.7186563"><ele>604.0</ele><time>2026-04-03T14:40:18.219Z</time></trkpt><trkpt lat="44.3449121" lon="7.7185701"><ele>604.0</ele><time>2026-04-03T14:40:19.222Z</time></trkpt><trkpt lat="44.344865" lon="7.7184997"><ele>604.0</ele><time>2026-04-03T14:40:20.219Z</time></trkpt><trkpt lat="44.3448118" lon="7.7184311"><ele>604.0</ele><time>2026-04-03T14:40:21.22Z</time></trkpt><trkpt lat="44.3447478" lon="7.7183909"><ele>603.6</ele><time>2026-04-03T14:40:22.225Z</time></trkpt><trkpt lat="44.3446675" lon="7.7183611"><ele>603.2</ele><time>2026-04-03T14:40:23.219Z</time></trkpt><trkpt lat="44.3445693" lon="7.7183689"><ele>602.8000000000001</ele><time>2026-04-03T14:40:24.22Z</time></trkpt><trkpt lat="44.344472" lon="7.7183995"><ele>602.4</ele><time>2026-04-03T14:40:25.22Z</time></trkpt><trkpt lat="44.3443783" lon="7.7184361"><ele>602.0</ele><time>2026-04-03T14:40:26.223Z</time></trkpt><trkpt lat="44.3442817" lon="7.7184559"><ele>602.0</ele><time>2026-04-03T14:40:27.22Z</time></trkpt><trkpt lat="44.3441774" lon="7.718477"><ele>602.0</ele><time>2026-04-03T14:40:28.219Z</time></trkpt><trkpt lat="44.3440888" lon="7.7185109"><ele>602.0</ele><time>2026-04-03T14:40:29.228Z</time></trkpt><trkpt lat="44.344009" lon="7.7185517"><ele>602.0</ele><time>2026-04-03T14:40:30.222Z</time></trkpt><trkpt lat="44.3439199" lon="7.7185718"><ele>602.0</ele><time>2026-04-03T14:40:31.224Z</time></trkpt><trkpt lat="44.3438343" lon="7.7185761"><ele>601.8333333333333</ele><time>2026-04-03T14:40:32.222Z</time></trkpt><trkpt lat="44.3437471" lon="7.718574"><ele>601.6666666666666</ele><time>2026-04-03T14:40:33.225Z</time></trkpt><trkpt lat="44.3436762" lon="7.7185587"><ele>601.5</ele><time>2026-04-03T14:40:34.217Z</time></trkpt><trkpt lat="44.3436129" lon="7.7185364"><ele>601.3333333333334</ele><time>2026-04-03T14:40:35.22Z</time></trkpt><trkpt lat="44.3435173" lon="7.7184752"><ele>601.1666666666667</ele><time>2026-04-03T14:40:37.219Z</time></trkpt><trkpt lat="44.343445" lon="7.7184537"><ele>601.0</ele><time>2026-04-03T14:40:39.23Z</time></trkpt><trkpt lat="44.3433681" lon="7.7184227"><ele>601.0</ele><time>2026-04-03T14:40:43.225Z</time></trkpt><trkpt lat="44.3433048" lon="7.7183489"><ele>601.0</ele><time>2026-04-03T14:40:45.217Z</time></trkpt><trkpt lat="44.3432601" lon="7.7181676"><ele>601.0</ele><time>2026-04-03T14:40:47.225Z</time></trkpt><trkpt lat="44.3432555" lon="7.7180596"><ele>601.0</ele><time>2026-04-03T14:40:48.227Z</time></trkpt><trkpt lat="44.3432441" lon="7.7179617"><ele>601.0</ele><time>2026-04-03T14:40:49.227Z</time></trkpt><trkpt lat="44.343235" lon="7.7178593"><ele>601.0</ele><time>2026-04-03T14:40:50.227Z</time></trkpt><trkpt lat="44.3432236" lon="7.7177488"><ele>600.8</ele><time>2026-04-03T14:40:51.226Z</time></trkpt><trkpt lat="44.3432116" lon="7.7176256"><ele>600.6</ele><time>2026-04-03T14:40:52.218Z</time></trkpt><trkpt lat="44.343189" lon="7.7175011"><ele>600.4</ele><time>2026-04-03T14:40:53.22Z</time></trkpt><trkpt lat="44.3431702" lon="7.7173707"><ele>600.2</ele><time>2026-04-03T14:40:54.217Z</time></trkpt><trkpt lat="44.3431692" lon="7.7172411"><ele>600.0</ele><time>2026-04-03T14:40:55.218Z</time></trkpt><trkpt lat="44.3431854" lon="7.7171123"><ele>600.0</ele><time>2026-04-03T14:40:56.225Z</time></trkpt><trkpt lat="44.3432187" lon="7.7169818"><ele>600.0</ele><time>2026-04-03T14:40:57.218Z</time></trkpt><trkpt lat="44.343254" lon="7.7168463"><ele>600.0</ele><time>2026-04-03T14:40:58.217Z</time></trkpt><trkpt lat="44.3432943" lon="7.716704"><ele>600.0</ele><time>2026-04-03T14:40:59.219Z</time></trkpt><trkpt lat="44.3433331" lon="7.716551"><ele>600.0</ele><time>2026-04-03T14:41:00.219Z</time></trkpt><trkpt lat="44.3433777" lon="7.7163967"><ele>600.0</ele><time>2026-04-03T14:41:01.224Z</time></trkpt><trkpt lat="44.3434576" lon="7.7162621"><ele>600.0</ele><time>2026-04-03T14:41:02.22Z</time></trkpt><trkpt lat="44.3435407" lon="7.7161478"><ele>600.0</ele><time>2026-04-03T14:41:03.221Z</time></trkpt><trkpt lat="44.3436631" lon="7.7160613"><ele>600.0</ele><time>2026-04-03T14:41:04.221Z</time></trkpt><trkpt lat="44.3437633" lon="7.7159735"><ele>599.75</ele><time>2026-04-03T14:41:05.217Z</time></trkpt><trkpt lat="44.3438597" lon="7.7158748"><ele>599.5</ele><time>2026-04-03T14:41:06.219Z</time></trkpt><trkpt lat="44.3439241" lon="7.7157422"><ele>599.25</ele><time>2026-04-03T14:41:07.221Z</time></trkpt><trkpt lat="44.3439667" lon="7.715604"><ele>599.0</ele><time>2026-04-03T14:41:08.219Z</time></trkpt><trkpt lat="44.3440036" lon="7.715443"><ele>598.75</ele><time>2026-04-03T14:41:09.218Z</time></trkpt><trkpt lat="44.3440373" lon="7.7152655"><ele>598.5</ele><time>2026-04-03T14:41:10.231Z</time></trkpt><trkpt lat="44.3440736" lon="7.7151002"><ele>598.25</ele><time>2026-04-03T14:41:11.223Z</time></trkpt><trkpt lat="44.3440897" lon="7.7149169"><ele>598.0</ele><time>2026-04-03T14:41:12.222Z</time></trkpt><trkpt lat="44.3441189" lon="7.7147448"><ele>597.6</ele><time>2026-04-03T14:41:13.216Z</time></trkpt><trkpt lat="44.3441616" lon="7.7145905"><ele>597.1999999999999</ele><time>2026-04-03T14:41:14.22Z</time></trkpt><trkpt lat="44.3441883" lon="7.7144424"><ele>596.8</ele><time>2026-04-03T14:41:15.22Z</time></trkpt><trkpt lat="44.3442506" lon="7.714313"><ele>596.4</ele><time>2026-04-03T14:41:16.219Z</time></trkpt><trkpt lat="44.3443206" lon="7.7142"><ele>596.0</ele><time>2026-04-03T14:41:17.219Z</time></trkpt><trkpt lat="44.34438" lon="7.7140851"><ele>593.0</ele><time>2026-04-03T14:41:18.217Z</time></trkpt><trkpt lat="44.3444213" lon="7.7139517"><ele>590.0</ele><time>2026-04-03T14:41:19.22Z</time></trkpt><trkpt lat="44.3444553" lon="7.7137841"><ele>587.0</ele><time>2026-04-03T14:41:20.217Z</time></trkpt><trkpt lat="44.3444549" lon="7.7136183"><ele>584.0</ele><time>2026-04-03T14:41:21.22Z</time></trkpt><trkpt lat="44.3444524" lon="7.7134672"><ele>582.3333333333333</ele><time>2026-04-03T14:41:22.218Z</time></trkpt><trkpt lat="44.344433" lon="7.7133311"><ele>580.6666666666666</ele><time>2026-04-03T14:41:23.224Z</time></trkpt><trkpt lat="44.3443844" lon="7.7132182"><ele>579.0</ele><time>2026-04-03T14:41:24.218Z</time></trkpt><trkpt lat="44.3443369" lon="7.7131115"><ele>577.3333333333334</ele><time>2026-04-03T14:41:25.223Z</time></trkpt><trkpt lat="44.3443073" lon="7.7130091"><ele>575.6666666666667</ele><time>2026-04-03T14:41:26.218Z</time></trkpt><trkpt lat="44.3443184" lon="7.7129085"><ele>574.0</ele><time>2026-04-03T14:41:27.223Z</time></trkpt><trkpt lat="44.3443804" lon="7.712866"><ele>574.0</ele><time>2026-04-03T14:41:28.222Z</time></trkpt><trkpt lat="44.3444417" lon="7.7128433"><ele>574.0</ele><time>2026-04-03T14:41:29.219Z</time></trkpt><trkpt lat="44.3445153" lon="7.7129407"><ele>574.0</ele><time>2026-04-03T14:41:30.219Z</time></trkpt><trkpt lat="44.3445809" lon="7.7130674"><ele>574.0</ele><time>2026-04-03T14:41:31.218Z</time></trkpt><trkpt lat="44.3446149" lon="7.7132381"><ele>574.0</ele><time>2026-04-03T14:41:32.221Z</time></trkpt><trkpt lat="44.3446838" lon="7.7134084"><ele>575.2</ele><time>2026-04-03T14:41:33.219Z</time></trkpt><trkpt lat="44.3447425" lon="7.7135759"><ele>576.4</ele><time>2026-04-03T14:41:34.225Z</time></trkpt><trkpt lat="44.3447978" lon="7.7137011"><ele>577.6</ele><time>2026-04-03T14:41:35.221Z</time></trkpt><trkpt lat="44.3448366" lon="7.7137956"><ele>578.8</ele><time>2026-04-03T14:41:36.22Z</time></trkpt><trkpt lat="44.3448773" lon="7.7138864"><ele>580.0</ele><time>2026-04-03T14:41:37.22Z</time></trkpt><trkpt lat="44.3449859" lon="7.7139145"><ele>580.0</ele><time>2026-04-03T14:41:39.222Z</time></trkpt><trkpt lat="44.3450253" lon="7.7137695"><ele>580.0</ele><time>2026-04-03T14:41:41.219Z</time></trkpt><trkpt lat="44.3450506" lon="7.7136382"><ele>580.0</ele><time>2026-04-03T14:41:42.222Z</time></trkpt><trkpt lat="44.3450619" lon="7.7134628"><ele>580.0</ele><time>2026-04-03T14:41:43.223Z</time></trkpt><trkpt lat="44.345102" lon="7.7132881"><ele>578.75</ele><time>2026-04-03T14:41:44.228Z</time></trkpt><trkpt lat="44.3451343" lon="7.7131049"><ele>577.5</ele><time>2026-04-03T14:41:45.219Z</time></trkpt><trkpt lat="44.3451509" lon="7.7129313"><ele>576.25</ele><time>2026-04-03T14:41:46.217Z</time></trkpt><trkpt lat="44.3451262" lon="7.712791"><ele>575.0</ele><time>2026-04-03T14:41:47.219Z</time></trkpt><trkpt lat="44.3451303" lon="7.7126485"><ele>573.25</ele><time>2026-04-03T14:41:48.217Z</time></trkpt><trkpt lat="44.3451757" lon="7.7125368"><ele>571.5</ele><time>2026-04-03T14:41:49.219Z</time></trkpt><trkpt lat="44.3452612" lon="7.7124603"><ele>569.75</ele><time>2026-04-03T14:41:50.222Z</time></trkpt><trkpt lat="44.3453704" lon="7.7123749"><ele>568.0</ele><time>2026-04-03T14:41:51.219Z</time></trkpt><trkpt lat="44.3454678" lon="7.7122511"><ele>570.1999999999999</ele><time>2026-04-03T14:41:52.226Z</time></trkpt><trkpt lat="44.3455525" lon="7.7121364"><ele>572.4</ele><time>2026-04-03T14:41:53.227Z</time></trkpt><trkpt lat="44.3456327" lon="7.7120562"><ele>574.5999999999999</ele><time>2026-04-03T14:41:54.219Z</time></trkpt><trkpt lat="44.3457167" lon="7.7120071"><ele>576.8</ele><time>2026-04-03T14:41:55.222Z</time></trkpt><trkpt lat="44.3458055" lon="7.7120009"><ele>579.0</ele><time>2026-04-03T14:41:56.225Z</time></trkpt><trkpt lat="44.3458937" lon="7.7120815"><ele>579.0</ele><time>2026-04-03T14:41:57.222Z</time></trkpt><trkpt lat="44.346011" lon="7.71219"><ele>579.0</ele><time>2026-04-03T14:41:58.22Z</time></trkpt><trkpt lat="44.3461038" lon="7.7122759"><ele>579.0</ele><time>2026-04-03T14:41:59.22Z</time></trkpt><trkpt lat="44.3461824" lon="7.7123185"><ele>579.0</ele><time>2026-04-03T14:42:00.222Z</time></trkpt><trkpt lat="44.3462888" lon="7.7122725"><ele>579.0</ele><time>2026-04-03T14:42:02.221Z</time></trkpt><trkpt lat="44.3462685" lon="7.7121343"><ele>579.0</ele><time>2026-04-03T14:42:04.222Z</time></trkpt><trkpt lat="44.3462169" lon="7.7120196"><ele>579.0</ele><time>2026-04-03T14:42:05.219Z</time></trkpt><trkpt lat="44.346114" lon="7.7118143"><ele>579.0</ele><time>2026-04-03T14:42:06.23Z</time></trkpt><trkpt lat="44.346079" lon="7.7116535"><ele>579.0</ele><time>2026-04-03T14:42:07.227Z</time></trkpt><trkpt lat="44.346069" lon="7.7115232"><ele>578.0</ele><time>2026-04-03T14:42:08.223Z</time></trkpt><trkpt lat="44.3461739" lon="7.7114108"><ele>577.0</ele><time>2026-04-03T14:42:09.221Z</time></trkpt><trkpt lat="44.3462564" lon="7.7112937"><ele>576.0</ele><time>2026-04-03T14:42:10.223Z</time></trkpt><trkpt lat="44.3463788" lon="7.7112526"><ele>575.0</ele><time>2026-04-03T14:42:11.222Z</time></trkpt><trkpt lat="44.3464672" lon="7.7112335"><ele>575.0</ele><time>2026-04-03T14:42:12.222Z</time></trkpt><trkpt lat="44.346551" lon="7.7112514"><ele>575.0</ele><time>2026-04-03T14:42:13.215Z</time></trkpt><trkpt lat="44.3466241" lon="7.7113056"><ele>575.0</ele><time>2026-04-03T14:42:14.219Z</time></trkpt><trkpt lat="44.3467215" lon="7.7113955"><ele>575.0</ele><time>2026-04-03T14:42:15.218Z</time></trkpt><trkpt lat="44.3468688" lon="7.7115906"><ele>575.0</ele><time>2026-04-03T14:42:16.224Z</time></trkpt><trkpt lat="44.3469679" lon="7.7117096"><ele>575.0</ele><time>2026-04-03T14:42:17.22Z</time></trkpt><trkpt lat="44.3470438" lon="7.7118263"><ele>575.0</ele><time>2026-04-03T14:42:18.214Z</time></trkpt><trkpt lat="44.3471312" lon="7.7119148"><ele>575.0</ele><time>2026-04-03T14:42:19.221Z</time></trkpt><trkpt lat="44.3472149" lon="7.7119861"><ele>575.0</ele><time>2026-04-03T14:42:20.219Z</time></trkpt><trkpt lat="44.3473061" lon="7.7121238"><ele>576.8</ele><time>2026-04-03T14:42:22.224Z</time></trkpt><trkpt lat="44.3474255" lon="7.7121423"><ele>578.6</ele><time>2026-04-03T14:42:24.22Z</time></trkpt><trkpt lat="44.3474924" lon="7.7121293"><ele>580.4</ele><time>2026-04-03T14:42:25.227Z</time></trkpt><trkpt lat="44.3474719" lon="7.7119675"><ele>582.2</ele><time>2026-04-03T14:42:27.221Z</time></trkpt><trkpt lat="44.3474438" lon="7.7118735"><ele>584.0</ele><time>2026-04-03T14:42:28.221Z</time></trkpt><trkpt lat="44.3473939" lon="7.7117853"><ele>584.1666666666666</ele><time>2026-04-03T14:42:29.226Z</time></trkpt><trkpt lat="44.3473575" lon="7.7116941"><ele>584.3333333333333</ele><time>2026-04-03T14:42:30.219Z</time></trkpt><trkpt lat="44.3473116" lon="7.7115834"><ele>584.5</ele><time>2026-04-03T14:42:31.216Z</time></trkpt><trkpt lat="44.3472713" lon="7.7114651"><ele>584.6666666666666</ele><time>2026-04-03T14:42:32.227Z</time></trkpt><trkpt lat="44.3472301" lon="7.7113486"><ele>584.8333333333334</ele><time>2026-04-03T14:42:33.219Z</time></trkpt><trkpt lat="44.3471844" lon="7.7112312"><ele>585.0</ele><time>2026-04-03T14:42:34.218Z</time></trkpt><trkpt lat="44.3471484" lon="7.7111328"><ele>582.3333333333334</ele><time>2026-04-03T14:42:35.216Z</time></trkpt><trkpt lat="44.3470973" lon="7.7110278"><ele>579.6666666666666</ele><time>2026-04-03T14:42:36.216Z</time></trkpt><trkpt lat="44.3470667" lon="7.7109284"><ele>577.0</ele><time>2026-04-03T14:42:37.219Z</time></trkpt><trkpt lat="44.3470379" lon="7.7108107"><ele>574.3333333333333</ele><time>2026-04-03T14:42:38.222Z</time></trkpt><trkpt lat="44.3470261" lon="7.7106822"><ele>571.6666666666666</ele><time>2026-04-03T14:42:39.218Z</time></trkpt><trkpt lat="44.3470598" lon="7.7105513"><ele>569.0</ele><time>2026-04-03T14:42:40.221Z</time></trkpt><trkpt lat="44.3471146" lon="7.7104018"><ele>569.0</ele><time>2026-04-03T14:42:41.218Z</time></trkpt><trkpt lat="44.3471812" lon="7.7102543"><ele>569.0</ele><time>2026-04-03T14:42:42.22Z</time></trkpt><trkpt lat="44.3472363" lon="7.7101143"><ele>569.0</ele><time>2026-04-03T14:42:43.218Z</time></trkpt><trkpt lat="44.3473009" lon="7.7099943"><ele>569.0</ele><time>2026-04-03T14:42:44.22Z</time></trkpt><trkpt lat="44.3473747" lon="7.7098837"><ele>570.6</ele><time>2026-04-03T14:42:45.222Z</time></trkpt><trkpt lat="44.3474807" lon="7.7098186"><ele>572.2</ele><time>2026-04-03T14:42:46.223Z</time></trkpt><trkpt lat="44.3475743" lon="7.7097574"><ele>573.8000000000001</ele><time>2026-04-03T14:42:47.221Z</time></trkpt><trkpt lat="44.3476434" lon="7.7096708"><ele>575.4</ele><time>2026-04-03T14:42:48.22Z</time></trkpt><trkpt lat="44.3476916" lon="7.7095755"><ele>577.0</ele><time>2026-04-03T14:42:49.222Z</time></trkpt><trkpt lat="44.3477144" lon="7.7094543"><ele>574.6</ele><time>2026-04-03T14:42:50.222Z</time></trkpt><trkpt lat="44.347693" lon="7.7093385"><ele>572.2</ele><time>2026-04-03T14:42:51.229Z</time></trkpt><trkpt lat="44.3476426" lon="7.7092136"><ele>569.8</ele><time>2026-04-03T14:42:52.223Z</time></trkpt><trkpt lat="44.3475855" lon="7.7090744"><ele>567.4</ele><time>2026-04-03T14:42:53.22Z</time></trkpt><trkpt lat="44.3475274" lon="7.7089231"><ele>565.0</ele><time>2026-04-03T14:42:54.222Z</time></trkpt><trkpt lat="44.3474836" lon="7.7087921"><ele>565.0</ele><time>2026-04-03T14:42:55.221Z</time></trkpt><trkpt lat="44.3474457" lon="7.7086853"><ele>565.0</ele><time>2026-04-03T14:42:56.22Z</time></trkpt><trkpt lat="44.3473686" lon="7.7085527"><ele>565.0</ele><time>2026-04-03T14:42:58.218Z</time></trkpt><trkpt lat="44.3472973" lon="7.7085039"><ele>565.0</ele><time>2026-04-03T14:42:59.219Z</time></trkpt><trkpt lat="44.3472074" lon="7.7084565"><ele>565.0</ele><time>2026-04-03T14:43:00.218Z</time></trkpt><trkpt lat="44.3471119" lon="7.7083852"><ele>565.4</ele><time>2026-04-03T14:43:01.217Z</time></trkpt><trkpt lat="44.3470099" lon="7.7083001"><ele>565.8</ele><time>2026-04-03T14:43:02.227Z</time></trkpt><trkpt lat="44.3469257" lon="7.7081971"><ele>566.2</ele><time>2026-04-03T14:43:03.221Z</time></trkpt><trkpt lat="44.3468503" lon="7.708087"><ele>566.6</ele><time>2026-04-03T14:43:04.217Z</time></trkpt><trkpt lat="44.3467937" lon="7.7079719"><ele>567.0</ele><time>2026-04-03T14:43:05.218Z</time></trkpt><trkpt lat="44.3467561" lon="7.7078434"><ele>569.4</ele><time>2026-04-03T14:43:06.223Z</time></trkpt><trkpt lat="44.3467158" lon="7.7077279"><ele>571.8000000000001</ele><time>2026-04-03T14:43:07.223Z</time></trkpt><trkpt lat="44.3466602" lon="7.7076341"><ele>574.2</ele><time>2026-04-03T14:43:08.218Z</time></trkpt><trkpt lat="44.3465733" lon="7.7075625"><ele>576.6</ele><time>2026-04-03T14:43:09.22Z</time></trkpt><trkpt lat="44.3464929" lon="7.7075188"><ele>579.0</ele><time>2026-04-03T14:43:10.22Z</time></trkpt><trkpt lat="44.3464038" lon="7.7074574"><ele>578.8</ele><time>2026-04-03T14:43:11.22Z</time></trkpt><trkpt lat="44.3463362" lon="7.70737"><ele>578.5999999999999</ele><time>2026-04-03T14:43:12.218Z</time></trkpt><trkpt lat="44.3462473" lon="7.7072824"><ele>578.4</ele><time>2026-04-03T14:43:13.217Z</time></trkpt><trkpt lat="44.3461586" lon="7.7072009"><ele>578.1999999999999</ele><time>2026-04-03T14:43:14.219Z</time></trkpt><trkpt lat="44.3460684" lon="7.707125"><ele>578.0</ele><time>2026-04-03T14:43:15.228Z</time></trkpt><trkpt lat="44.3459892" lon="7.7070426"><ele>578.0</ele><time>2026-04-03T14:43:16.219Z</time></trkpt><trkpt lat="44.3459291" lon="7.7069811"><ele>578.0</ele><time>2026-04-03T14:43:17.216Z</time></trkpt><trkpt lat="44.3458785" lon="7.7068826"><ele>578.0</ele><time>2026-04-03T14:43:19.219Z</time></trkpt><trkpt lat="44.3459227" lon="7.7067917"><ele>578.0</ele><time>2026-04-03T14:43:22.225Z</time></trkpt><trkpt lat="44.3460143" lon="7.7067809"><ele>578.0</ele><time>2026-04-03T14:43:23.227Z</time></trkpt><trkpt lat="44.3460905" lon="7.7067501"><ele>578.0</ele><time>2026-04-03T14:43:24.229Z</time></trkpt><trkpt lat="44.3461686" lon="7.7066877"><ele>577.6666666666666</ele><time>2026-04-03T14:43:25.229Z</time></trkpt><trkpt lat="44.3462359" lon="7.7065984"><ele>577.3333333333333</ele><time>2026-04-03T14:43:26.226Z</time></trkpt><trkpt lat="44.3463039" lon="7.7065393"><ele>577.0</ele><time>2026-04-03T14:43:27.216Z</time></trkpt><trkpt lat="44.3463826" lon="7.7065219"><ele>576.6666666666666</ele><time>2026-04-03T14:43:28.219Z</time></trkpt><trkpt lat="44.3464539" lon="7.7065188"><ele>576.3333333333334</ele><time>2026-04-03T14:43:29.223Z</time></trkpt><trkpt lat="44.3465275" lon="7.7065876"><ele>576.0</ele><time>2026-04-03T14:43:30.218Z</time></trkpt><trkpt lat="44.346601" lon="7.706631"><ele>576.5</ele><time>2026-04-03T14:43:31.219Z</time></trkpt><trkpt lat="44.3466502" lon="7.7067208"><ele>577.0</ele><time>2026-04-03T14:43:32.223Z</time></trkpt><trkpt lat="44.3466972" lon="7.7067892"><ele>577.5</ele><time>2026-04-03T14:43:33.217Z</time></trkpt><trkpt lat="44.3467493" lon="7.7068449"><ele>578.0</ele><time>2026-04-03T14:43:34.226Z</time></trkpt><trkpt lat="44.3468353" lon="7.7068747"><ele>578.5</ele><time>2026-04-03T14:43:35.225Z</time></trkpt><trkpt lat="44.3469198" lon="7.7069105"><ele>579.0</ele><time>2026-04-03T14:43:36.217Z</time></trkpt><trkpt lat="44.3469996" lon="7.7069337"><ele>579.0</ele><time>2026-04-03T14:43:37.219Z</time></trkpt><trkpt lat="44.3470808" lon="7.7069211"><ele>579.0</ele><time>2026-04-03T14:43:38.22Z</time></trkpt><trkpt lat="44.3471766" lon="7.7069129"><ele>579.0</ele><time>2026-04-03T14:43:39.218Z</time></trkpt><trkpt lat="44.3472754" lon="7.7068813"><ele>579.0</ele><time>2026-04-03T14:43:40.222Z</time></trkpt><trkpt lat="44.3473631" lon="7.7068605"><ele>579.0</ele><time>2026-04-03T14:43:41.223Z</time></trkpt><trkpt lat="44.3474613" lon="7.7068297"><ele>582.0</ele><time>2026-04-03T14:43:42.22Z</time></trkpt><trkpt lat="44.3475986" lon="7.706844"><ele>585.0</ele><time>2026-04-03T14:43:43.223Z</time></trkpt><trkpt lat="44.3477154" lon="7.7068267"><ele>588.0</ele><time>2026-04-03T14:43:44.221Z</time></trkpt><trkpt lat="44.3478246" lon="7.7067923"><ele>591.0</ele><time>2026-04-03T14:43:45.223Z</time></trkpt><trkpt lat="44.3479341" lon="7.706738"><ele>590.75</ele><time>2026-04-03T14:43:46.221Z</time></trkpt><trkpt lat="44.3480729" lon="7.7066412"><ele>590.5</ele><time>2026-04-03T14:43:47.218Z</time></trkpt><trkpt lat="44.3481741" lon="7.7065761"><ele>590.25</ele><time>2026-04-03T14:43:48.222Z</time></trkpt><trkpt lat="44.34827" lon="7.7064819"><ele>590.0</ele><time>2026-04-03T14:43:49.218Z</time></trkpt><trkpt lat="44.3483521" lon="7.7063977"><ele>590.0</ele><time>2026-04-03T14:43:50.223Z</time></trkpt><trkpt lat="44.3484285" lon="7.7063163"><ele>590.0</ele><time>2026-04-03T14:43:51.225Z</time></trkpt><trkpt lat="44.3484743" lon="7.7062323"><ele>590.0</ele><time>2026-04-03T14:43:52.218Z</time></trkpt><trkpt lat="44.3485242" lon="7.7060619"><ele>590.0</ele><time>2026-04-03T14:43:53.223Z</time></trkpt><trkpt lat="44.3485675" lon="7.705942"><ele>590.0</ele><time>2026-04-03T14:43:54.222Z</time></trkpt><trkpt lat="44.3486144" lon="7.7058432"><ele>590.75</ele><time>2026-04-03T14:43:55.227Z</time></trkpt><trkpt lat="44.348662" lon="7.7057651"><ele>591.5</ele><time>2026-04-03T14:43:56.215Z</time></trkpt><trkpt lat="44.3487105" lon="7.7056125"><ele>592.25</ele><time>2026-04-03T14:43:58.222Z</time></trkpt><trkpt lat="44.3487036" lon="7.7054207"><ele>593.0</ele><time>2026-04-03T14:43:59.223Z</time></trkpt><trkpt lat="44.3486518" lon="7.7052255"><ele>594.4</ele><time>2026-04-03T14:44:00.226Z</time></trkpt><trkpt lat="44.3485827" lon="7.7050723"><ele>595.8</ele><time>2026-04-03T14:44:01.219Z</time></trkpt><trkpt lat="44.3485318" lon="7.7049424"><ele>597.2</ele><time>2026-04-03T14:44:02.224Z</time></trkpt><trkpt lat="44.3484726" lon="7.7048707"><ele>598.6</ele><time>2026-04-03T14:44:03.22Z</time></trkpt><trkpt lat="44.3484001" lon="7.7047415"><ele>600.0</ele><time>2026-04-03T14:44:05.22Z</time></trkpt><trkpt lat="44.3483961" lon="7.7046457"><ele>600.0</ele><time>2026-04-03T14:44:06.226Z</time></trkpt><trkpt lat="44.3484625" lon="7.7044668"><ele>600.0</ele><time>2026-04-03T14:44:07.218Z</time></trkpt><trkpt lat="44.3485031" lon="7.7043311"><ele>600.0</ele><time>2026-04-03T14:44:08.218Z</time></trkpt><trkpt lat="44.3485198" lon="7.7041975"><ele>600.0</ele><time>2026-04-03T14:44:09.223Z</time></trkpt><trkpt lat="44.3485196" lon="7.7040882"><ele>600.0</ele><time>2026-04-03T14:44:10.221Z</time></trkpt><trkpt lat="44.3485076" lon="7.7039947"><ele>600.2</ele><time>2026-04-03T14:44:11.217Z</time></trkpt><trkpt lat="44.3484874" lon="7.703911"><ele>600.4</ele><time>2026-04-03T14:44:12.231Z</time></trkpt><trkpt lat="44.3484213" lon="7.7038567"><ele>600.6</ele><time>2026-04-03T14:44:13.218Z</time></trkpt><trkpt lat="44.3483584" lon="7.7037866"><ele>600.8</ele><time>2026-04-03T14:44:14.22Z</time></trkpt><trkpt lat="44.3482005" lon="7.7036838"><ele>601.0</ele><time>2026-04-03T14:44:15.222Z</time></trkpt><trkpt lat="44.3481042" lon="7.7036209"><ele>600.5</ele><time>2026-04-03T14:44:16.219Z</time></trkpt><trkpt lat="44.3480231" lon="7.7035167"><ele>600.0</ele><time>2026-04-03T14:44:17.216Z</time></trkpt><trkpt lat="44.3479569" lon="7.7033521"><ele>599.5</ele><time>2026-04-03T14:44:18.219Z</time></trkpt><trkpt lat="44.3479163" lon="7.7032138"><ele>599.0</ele><time>2026-04-03T14:44:19.221Z</time></trkpt><trkpt lat="44.3479092" lon="7.703045"><ele>599.0</ele><time>2026-04-03T14:44:20.221Z</time></trkpt><trkpt lat="44.3478599" lon="7.7028826"><ele>599.0</ele><time>2026-04-03T14:44:21.222Z</time></trkpt><trkpt lat="44.3478156" lon="7.702721"><ele>599.0</ele><time>2026-04-03T14:44:22.22Z</time></trkpt><trkpt lat="44.3477722" lon="7.7026019"><ele>599.0</ele><time>2026-04-03T14:44:23.217Z</time></trkpt><trkpt lat="44.3477181" lon="7.702473"><ele>600.5</ele><time>2026-04-03T14:44:24.225Z</time></trkpt><trkpt lat="44.3476701" lon="7.7023265"><ele>602.0</ele><time>2026-04-03T14:44:25.221Z</time></trkpt><trkpt lat="44.3476046" lon="7.7021235"><ele>603.5</ele><time>2026-04-03T14:44:26.221Z</time></trkpt><trkpt lat="44.3475622" lon="7.7019531"><ele>605.0</ele><time>2026-04-03T14:44:27.217Z</time></trkpt><trkpt lat="44.3475239" lon="7.7018154"><ele>605.5</ele><time>2026-04-03T14:44:28.216Z</time></trkpt><trkpt lat="44.3474834" lon="7.7016986"><ele>606.0</ele><time>2026-04-03T14:44:29.22Z</time></trkpt><trkpt lat="44.3474352" lon="7.7015829"><ele>606.5</ele><time>2026-04-03T14:44:30.223Z</time></trkpt><trkpt lat="44.3473904" lon="7.7014894"><ele>607.0</ele><time>2026-04-03T14:44:31.217Z</time></trkpt><trkpt lat="44.3473342" lon="7.7013984"><ele>607.5</ele><time>2026-04-03T14:44:32.219Z</time></trkpt><trkpt lat="44.3473045" lon="7.7013076"><ele>608.0</ele><time>2026-04-03T14:44:33.22Z</time></trkpt><trkpt lat="44.3472757" lon="7.7012069"><ele>608.0</ele><time>2026-04-03T14:44:34.219Z</time></trkpt><trkpt lat="44.3472597" lon="7.7010836"><ele>608.0</ele><time>2026-04-03T14:44:35.219Z</time></trkpt><trkpt lat="44.3471925" lon="7.7009366"><ele>608.0</ele><time>2026-04-03T14:44:36.22Z</time></trkpt><trkpt lat="44.3471819" lon="7.7008117"><ele>608.0</ele><time>2026-04-03T14:44:37.221Z</time></trkpt><trkpt lat="44.3471517" lon="7.7006925"><ele>608.0</ele><time>2026-04-03T14:44:38.224Z</time></trkpt><trkpt lat="44.3472143" lon="7.7006307"><ele>607.8333333333333</ele><time>2026-04-03T14:44:39.219Z</time></trkpt><trkpt lat="44.3472668" lon="7.7005802"><ele>607.6666666666666</ele><time>2026-04-03T14:44:40.233Z</time></trkpt><trkpt lat="44.3473314" lon="7.7005059"><ele>607.5</ele><time>2026-04-03T14:44:41.224Z</time></trkpt><trkpt lat="44.3474114" lon="7.7004042"><ele>607.3333333333334</ele><time>2026-04-03T14:44:42.22Z</time></trkpt><trkpt lat="44.3474948" lon="7.7003252"><ele>607.1666666666667</ele><time>2026-04-03T14:44:43.226Z</time></trkpt><trkpt lat="44.3475515" lon="7.7002474"><ele>607.0</ele><time>2026-04-03T14:44:44.22Z</time></trkpt><trkpt lat="44.3476308" lon="7.7001924"><ele>607.5</ele><time>2026-04-03T14:44:45.218Z</time></trkpt><trkpt lat="44.3477074" lon="7.7001895"><ele>608.0</ele><time>2026-04-03T14:44:46.22Z</time></trkpt><trkpt lat="44.3478028" lon="7.7001809"><ele>608.5</ele><time>2026-04-03T14:44:47.219Z</time></trkpt><trkpt lat="44.3479063" lon="7.7002121"><ele>609.0</ele><time>2026-04-03T14:44:48.223Z</time></trkpt><trkpt lat="44.3479864" lon="7.7002064"><ele>609.5</ele><time>2026-04-03T14:44:49.218Z</time></trkpt><trkpt lat="44.3480584" lon="7.7001621"><ele>610.0</ele><time>2026-04-03T14:44:50.218Z</time></trkpt><trkpt lat="44.348121" lon="7.7001353"><ele>608.2</ele><time>2026-04-03T14:44:51.221Z</time></trkpt><trkpt lat="44.3481916" lon="7.7001061"><ele>606.4</ele><time>2026-04-03T14:44:52.218Z</time></trkpt><trkpt lat="44.3483832" lon="7.7001801"><ele>604.6</ele><time>2026-04-03T14:44:54.221Z</time></trkpt><trkpt lat="44.34848" lon="7.7002044"><ele>602.8</ele><time>2026-04-03T14:44:55.224Z</time></trkpt><trkpt lat="44.3485431" lon="7.7002052"><ele>601.0</ele><time>2026-04-03T14:44:56.226Z</time></trkpt><trkpt lat="44.3486167" lon="7.7000877"><ele>601.0</ele><time>2026-04-03T14:44:58.228Z</time></trkpt><trkpt lat="44.348645" lon="7.6999879"><ele>601.0</ele><time>2026-04-03T14:44:59.225Z</time></trkpt><trkpt lat="44.3486738" lon="7.6998197"><ele>601.0</ele><time>2026-04-03T14:45:00.227Z</time></trkpt><trkpt lat="44.3486983" lon="7.699684"><ele>601.0</ele><time>2026-04-03T14:45:01.225Z</time></trkpt><trkpt lat="44.3487188" lon="7.6995758"><ele>601.0</ele><time>2026-04-03T14:45:02.224Z</time></trkpt><trkpt lat="44.3487416" lon="7.6994916"><ele>601.0</ele><time>2026-04-03T14:45:03.224Z</time></trkpt><trkpt lat="44.348673" lon="7.6994111"><ele>600.1666666666667</ele><time>2026-04-03T14:45:36.221Z</time></trkpt><trkpt lat="44.3486088" lon="7.6994012"><ele>599.3333333333334</ele><time>2026-04-03T14:45:39.218Z</time></trkpt><trkpt lat="44.3485323" lon="7.6993496"><ele>598.5</ele><time>2026-04-03T14:45:42.22Z</time></trkpt><trkpt lat="44.3484947" lon="7.6992262"><ele>597.6666666666666</ele><time>2026-04-03T14:45:45.22Z</time></trkpt><trkpt lat="44.3484762" lon="7.6991251"><ele>596.8333333333333</ele><time>2026-04-03T14:45:47.219Z</time></trkpt><trkpt lat="44.3484438" lon="7.6990183"><ele>596.0</ele><time>2026-04-03T14:45:49.221Z</time></trkpt><trkpt lat="44.3484476" lon="7.698916"><ele>596.0</ele><time>2026-04-03T14:45:51.218Z</time></trkpt><trkpt lat="44.3484747" lon="7.6988091"><ele>596.0</ele><time>2026-04-03T14:45:53.22Z</time></trkpt><trkpt lat="44.3484919" lon="7.6986807"><ele>596.0</ele><time>2026-04-03T14:45:55.22Z</time></trkpt><trkpt lat="44.3485006" lon="7.698541"><ele>596.0</ele><time>2026-04-03T14:45:57.216Z</time></trkpt><trkpt lat="44.3484868" lon="7.6983735"><ele>596.0</ele><time>2026-04-03T14:45:59.216Z</time></trkpt><trkpt lat="44.3484817" lon="7.6982816"><ele>595.4</ele><time>2026-04-03T14:46:00.226Z</time></trkpt><trkpt lat="44.3484929" lon="7.698121"><ele>594.8</ele><time>2026-04-03T14:46:02.221Z</time></trkpt><trkpt lat="44.3484966" lon="7.6979853"><ele>594.1999999999999</ele><time>2026-04-03T14:46:04.226Z</time></trkpt><trkpt lat="44.3484675" lon="7.6978424"><ele>593.6</ele><time>2026-04-03T14:46:06.218Z</time></trkpt><trkpt lat="44.3484561" lon="7.6977008"><ele>593.0</ele><time>2026-04-03T14:46:08.219Z</time></trkpt><trkpt lat="44.348458" lon="7.6976087"><ele>591.6</ele><time>2026-04-03T14:46:09.221Z</time></trkpt><trkpt lat="44.3484623" lon="7.6975193"><ele>590.1999999999999</ele><time>2026-04-03T14:46:10.223Z</time></trkpt><trkpt lat="44.3485041" lon="7.697326"><ele>588.8</ele><time>2026-04-03T14:46:11.219Z</time></trkpt><trkpt lat="44.3485202" lon="7.6971918"><ele>587.4</ele><time>2026-04-03T14:46:12.223Z</time></trkpt><trkpt lat="44.3485199" lon="7.6970894"><ele>586.0</ele><time>2026-04-03T14:46:13.217Z</time></trkpt><trkpt lat="44.3484994" lon="7.6969828"><ele>584.0</ele><time>2026-04-03T14:46:14.217Z</time></trkpt><trkpt lat="44.3484712" lon="7.6968841"><ele>582.0</ele><time>2026-04-03T14:46:15.225Z</time></trkpt><trkpt lat="44.3484291" lon="7.6967905"><ele>580.0</ele><time>2026-04-03T14:46:16.225Z</time></trkpt><trkpt lat="44.3483926" lon="7.6967041"><ele>578.0</ele><time>2026-04-03T14:46:17.219Z</time></trkpt><trkpt lat="44.3483441" lon="7.6966259"><ele>576.0</ele><time>2026-04-03T14:46:18.221Z</time></trkpt><trkpt lat="44.3482938" lon="7.6965478"><ele>574.0</ele><time>2026-04-03T14:46:19.22Z</time></trkpt><trkpt lat="44.3482297" lon="7.6964782"><ele>574.0</ele><time>2026-04-03T14:46:20.219Z</time></trkpt><trkpt lat="44.3481602" lon="7.6964132"><ele>574.0</ele><time>2026-04-03T14:46:21.224Z</time></trkpt><trkpt lat="44.3481006" lon="7.6963438"><ele>574.0</ele><time>2026-04-03T14:46:22.218Z</time></trkpt><trkpt lat="44.3480259" lon="7.6962714"><ele>574.0</ele><time>2026-04-03T14:46:24.216Z</time></trkpt><trkpt lat="44.3479359" lon="7.6962826"><ele>574.0</ele><time>2026-04-03T14:46:26.217Z</time></trkpt><trkpt lat="44.3478474" lon="7.6963222"><ele>574.0</ele><time>2026-04-03T14:46:28.225Z</time></trkpt><trkpt lat="44.3477821" lon="7.6962935"><ele>574.5</ele><time>2026-04-03T14:46:31.216Z</time></trkpt><trkpt lat="44.3477237" lon="7.6961294"><ele>575.0</ele><time>2026-04-03T14:46:33.213Z</time></trkpt><trkpt lat="44.3476151" lon="7.695969"><ele>575.5</ele><time>2026-04-03T14:46:34.215Z</time></trkpt><trkpt lat="44.3475374" lon="7.6958418"><ele>576.0</ele><time>2026-04-03T14:46:36.214Z</time></trkpt><trkpt lat="44.3474763" lon="7.6957932"><ele>573.1666666666666</ele><time>2026-04-03T14:46:37.221Z</time></trkpt><trkpt lat="44.3474263" lon="7.695732"><ele>570.3333333333334</ele><time>2026-04-03T14:46:38.225Z</time></trkpt><trkpt lat="44.3473764" lon="7.6956695"><ele>567.5</ele><time>2026-04-03T14:46:39.221Z</time></trkpt><trkpt lat="44.3473173" lon="7.695577"><ele>564.6666666666667</ele><time>2026-04-03T14:46:40.215Z</time></trkpt><trkpt lat="44.3472607" lon="7.6954944"><ele>561.8333333333334</ele><time>2026-04-03T14:46:41.221Z</time></trkpt><trkpt lat="44.3472057" lon="7.6954184"><ele>559.0</ele><time>2026-04-03T14:46:42.223Z</time></trkpt><trkpt lat="44.3471659" lon="7.6953213"><ele>554.1666666666667</ele><time>2026-04-03T14:46:43.221Z</time></trkpt><trkpt lat="44.3471607" lon="7.6951784"><ele>549.3333333333334</ele><time>2026-04-03T14:46:44.218Z</time></trkpt><trkpt lat="44.3471576" lon="7.6950177"><ele>544.5</ele><time>2026-04-03T14:46:46.216Z</time></trkpt><trkpt lat="44.3470921" lon="7.6949894"><ele>539.6666666666666</ele><time>2026-04-03T14:46:49.222Z</time></trkpt><trkpt lat="44.3470361" lon="7.6950343"><ele>534.8333333333333</ele><time>2026-04-03T14:46:53.214Z</time></trkpt><trkpt lat="44.3469634" lon="7.6951069"><ele>530.0</ele><time>2026-04-03T14:50:07.224Z</time></trkpt><trkpt lat="44.3469043" lon="7.6951731"><ele>548.0</ele><time>2026-04-03T14:50:10.219Z</time></trkpt><trkpt lat="44.3464447" lon="7.6954797"><ele>544.75</ele><time>2026-04-03T14:50:13.213Z</time></trkpt><trkpt lat="44.3463247" lon="7.695481"><ele>541.5</ele><time>2026-04-03T14:50:14.218Z</time></trkpt><trkpt lat="44.3462013" lon="7.6954725"><ele>538.25</ele><time>2026-04-03T14:50:15.216Z</time></trkpt><trkpt lat="44.3460715" lon="7.695464"><ele>535.0</ele><time>2026-04-03T14:50:16.221Z</time></trkpt><trkpt lat="44.3459297" lon="7.6954688"><ele>535.0</ele><time>2026-04-03T14:50:17.222Z</time></trkpt><trkpt lat="44.3457901" lon="7.6954896"><ele>535.0</ele><time>2026-04-03T14:50:18.215Z</time></trkpt><trkpt lat="44.3456415" lon="7.6955017"><ele>535.0</ele><time>2026-04-03T14:50:19.215Z</time></trkpt><trkpt lat="44.3455149" lon="7.6955214"><ele>535.0</ele><time>2026-04-03T14:50:20.217Z</time></trkpt><trkpt lat="44.3454028" lon="7.6955244"><ele>535.25</ele><time>2026-04-03T14:50:21.22Z</time></trkpt><trkpt lat="44.3452957" lon="7.6954996"><ele>535.5</ele><time>2026-04-03T14:50:22.217Z</time></trkpt><trkpt lat="44.3451953" lon="7.6954666"><ele>535.75</ele><time>2026-04-03T14:50:23.229Z</time></trkpt><trkpt lat="44.3451076" lon="7.69535"><ele>536.0</ele><time>2026-04-03T14:50:24.219Z</time></trkpt><trkpt lat="44.3450045" lon="7.6952514"><ele>533.3333333333333</ele><time>2026-04-03T14:50:25.217Z</time></trkpt><trkpt lat="44.3448827" lon="7.695166"><ele>530.6666666666666</ele><time>2026-04-03T14:50:26.215Z</time></trkpt><trkpt lat="44.3447362" lon="7.6950974"><ele>528.0</ele><time>2026-04-03T14:50:27.227Z</time></trkpt><trkpt lat="44.3445804" lon="7.6950349"><ele>528.0</ele><time>2026-04-03T14:50:28.217Z</time></trkpt><trkpt lat="44.3444352" lon="7.6949562"><ele>528.0</ele><time>2026-04-03T14:50:29.217Z</time></trkpt><trkpt lat="44.3442893" lon="7.6948464"><ele>528.0</ele><time>2026-04-03T14:50:30.215Z</time></trkpt><trkpt lat="44.3441466" lon="7.6947173"><ele>528.0</ele><time>2026-04-03T14:50:31.223Z</time></trkpt><trkpt lat="44.344009" lon="7.6945788"><ele>528.0</ele><time>2026-04-03T14:50:32.228Z</time></trkpt><trkpt lat="44.3438693" lon="7.6944179"><ele>528.0</ele><time>2026-04-03T14:50:33.223Z</time></trkpt><trkpt lat="44.3437221" lon="7.6942581"><ele>528.0</ele><time>2026-04-03T14:50:34.218Z</time></trkpt><trkpt lat="44.3435576" lon="7.6941062"><ele>528.0</ele><time>2026-04-03T14:50:35.222Z</time></trkpt><trkpt lat="44.3433884" lon="7.6939713"><ele>528.0</ele><time>2026-04-03T14:50:36.222Z</time></trkpt><trkpt lat="44.3432126" lon="7.6938653"><ele>528.0</ele><time>2026-04-03T14:50:37.228Z</time></trkpt><trkpt lat="44.3430489" lon="7.6937798"><ele>528.0</ele><time>2026-04-03T14:50:38.22Z</time></trkpt><trkpt lat="44.3428982" lon="7.6937044"><ele>528.0</ele><time>2026-04-03T14:50:39.22Z</time></trkpt><trkpt lat="44.3427703" lon="7.6936274"><ele>529.0</ele><time>2026-04-03T14:50:40.22Z</time></trkpt><trkpt lat="44.3426667" lon="7.6935589"><ele>530.0</ele><time>2026-04-03T14:50:41.222Z</time></trkpt><trkpt lat="44.3425859" lon="7.6935007"><ele>531.0</ele><time>2026-04-03T14:50:42.216Z</time></trkpt><trkpt lat="44.3425252" lon="7.6934549"><ele>532.0</ele><time>2026-04-03T14:50:43.221Z</time></trkpt><trkpt lat="44.3424365" lon="7.6933701"><ele>533.0</ele><time>2026-04-03T14:50:45.22Z</time></trkpt><trkpt lat="44.3423656" lon="7.6933328"><ele>533.0</ele><time>2026-04-03T14:50:46.219Z</time></trkpt><trkpt lat="44.3422697" lon="7.693311"><ele>533.0</ele><time>2026-04-03T14:50:47.214Z</time></trkpt><trkpt lat="44.3421516" lon="7.6933028"><ele>533.0</ele><time>2026-04-03T14:50:48.22Z</time></trkpt><trkpt lat="44.3420271" lon="7.693286"><ele>533.0</ele><time>2026-04-03T14:50:49.221Z</time></trkpt><trkpt lat="44.3418811" lon="7.6932613"><ele>533.6666666666666</ele><time>2026-04-03T14:50:50.221Z</time></trkpt><trkpt lat="44.3417256" lon="7.6932458"><ele>534.3333333333334</ele><time>2026-04-03T14:50:51.222Z</time></trkpt><trkpt lat="44.3415376" lon="7.6932266"><ele>535.0</ele><time>2026-04-03T14:50:52.221Z</time></trkpt><trkpt lat="44.3413487" lon="7.6932112"><ele>536.0</ele><time>2026-04-03T14:50:53.219Z</time></trkpt><trkpt lat="44.3411504" lon="7.6931865"><ele>537.0</ele><time>2026-04-03T14:50:54.218Z</time></trkpt><trkpt lat="44.3409509" lon="7.6931612"><ele>538.0</ele><time>2026-04-03T14:50:55.228Z</time></trkpt><trkpt lat="44.3407457" lon="7.6931316"><ele>539.0</ele><time>2026-04-03T14:50:56.223Z</time></trkpt><trkpt lat="44.34054" lon="7.6931043"><ele>540.0</ele><time>2026-04-03T14:50:57.218Z</time></trkpt><trkpt lat="44.340332" lon="7.6930761"><ele>541.0</ele><time>2026-04-03T14:50:58.228Z</time></trkpt><trkpt lat="44.3401184" lon="7.6930451"><ele>541.0</ele><time>2026-04-03T14:50:59.219Z</time></trkpt><trkpt lat="44.3398982" lon="7.6930149"><ele>541.0</ele><time>2026-04-03T14:51:00.217Z</time></trkpt><trkpt lat="44.3396795" lon="7.6929686"><ele>541.0</ele><time>2026-04-03T14:51:01.221Z</time></trkpt><trkpt lat="44.3394657" lon="7.6929135"><ele>539.0</ele><time>2026-04-03T14:51:02.228Z</time></trkpt><trkpt lat="44.3392479" lon="7.692835"><ele>537.0</ele><time>2026-04-03T14:51:03.219Z</time></trkpt><trkpt lat="44.3390321" lon="7.6927407"><ele>537.3333333333334</ele><time>2026-04-03T14:51:04.22Z</time></trkpt><trkpt lat="44.3388205" lon="7.6926381"><ele>537.6666666666667</ele><time>2026-04-03T14:51:05.215Z</time></trkpt><trkpt lat="44.3386117" lon="7.6925374"><ele>538.0</ele><time>2026-04-03T14:51:06.216Z</time></trkpt><trkpt lat="44.3384001" lon="7.6924346"><ele>538.0</ele><time>2026-04-03T14:51:07.232Z</time></trkpt><trkpt lat="44.3381906" lon="7.6923381"><ele>538.0</ele><time>2026-04-03T14:51:08.226Z</time></trkpt><trkpt lat="44.3379851" lon="7.6922445"><ele>538.0</ele><time>2026-04-03T14:51:09.213Z</time></trkpt><trkpt lat="44.3377794" lon="7.6921563"><ele>539.0</ele><time>2026-04-03T14:51:10.22Z</time></trkpt><trkpt lat="44.3375734" lon="7.6920657"><ele>540.0</ele><time>2026-04-03T14:51:11.218Z</time></trkpt><trkpt lat="44.3373715" lon="7.6919693"><ele>541.0</ele><time>2026-04-03T14:51:12.217Z</time></trkpt><trkpt lat="44.3371662" lon="7.6918673"><ele>541.0</ele><time>2026-04-03T14:51:13.229Z</time></trkpt><trkpt lat="44.3369637" lon="7.6917662"><ele>541.0</ele><time>2026-04-03T14:51:14.222Z</time></trkpt><trkpt lat="44.3367614" lon="7.6916734"><ele>541.0</ele><time>2026-04-03T14:51:15.22Z</time></trkpt><trkpt lat="44.3365586" lon="7.6915786"><ele>542.6666666666667</ele><time>2026-04-03T14:51:16.227Z</time></trkpt><trkpt lat="44.3363522" lon="7.6914891"><ele>544.3333333333334</ele><time>2026-04-03T14:51:17.222Z</time></trkpt><trkpt lat="44.3361449" lon="7.6913855"><ele>546.0</ele><time>2026-04-03T14:51:18.226Z</time></trkpt><trkpt lat="44.3359348" lon="7.691275"><ele>546.0</ele><time>2026-04-03T14:51:19.222Z</time></trkpt><trkpt lat="44.335726" lon="7.6911511"><ele>546.0</ele><time>2026-04-03T14:51:20.221Z</time></trkpt><trkpt lat="44.335524" lon="7.691015"><ele>545.0</ele><time>2026-04-03T14:51:21.227Z</time></trkpt><trkpt lat="44.3353194" lon="7.6908754"><ele>544.0</ele><time>2026-04-03T14:51:22.216Z</time></trkpt><trkpt lat="44.3351154" lon="7.6907304"><ele>544.0</ele><time>2026-04-03T14:51:23.217Z</time></trkpt><trkpt lat="44.3349117" lon="7.690584"><ele>544.0</ele><time>2026-04-03T14:51:24.219Z</time></trkpt><trkpt lat="44.3347073" lon="7.6904436"><ele>545.0</ele><time>2026-04-03T14:51:25.218Z</time></trkpt><trkpt lat="44.3345033" lon="7.6903069"><ele>546.0</ele><time>2026-04-03T14:51:26.218Z</time></trkpt><trkpt lat="44.3342954" lon="7.6901718"><ele>546.0</ele><time>2026-04-03T14:51:27.22Z</time></trkpt><trkpt lat="44.3340892" lon="7.6900307"><ele>546.0</ele><time>2026-04-03T14:51:28.219Z</time></trkpt><trkpt lat="44.3338925" lon="7.6898895"><ele>548.0</ele><time>2026-04-03T14:51:29.215Z</time></trkpt><trkpt lat="44.3336928" lon="7.6897457"><ele>550.0</ele><time>2026-04-03T14:51:30.215Z</time></trkpt><trkpt lat="44.3334934" lon="7.6896015"><ele>552.0</ele><time>2026-04-03T14:51:31.22Z</time></trkpt><trkpt lat="44.3332908" lon="7.6894606"><ele>550.0</ele><time>2026-04-03T14:51:32.228Z</time></trkpt><trkpt lat="44.3330971" lon="7.6893195"><ele>548.0</ele><time>2026-04-03T14:51:33.22Z</time></trkpt><trkpt lat="44.3329078" lon="7.689175"><ele>546.0</ele><time>2026-04-03T14:51:34.219Z</time></trkpt><trkpt lat="44.3327246" lon="7.6890254"><ele>548.6666666666666</ele><time>2026-04-03T14:51:35.213Z</time></trkpt><trkpt lat="44.3325451" lon="7.6888568"><ele>551.3333333333333</ele><time>2026-04-03T14:51:36.223Z</time></trkpt><trkpt lat="44.3323724" lon="7.6886735"><ele>554.0</ele><time>2026-04-03T14:51:37.221Z</time></trkpt><trkpt lat="44.3321997" lon="7.6884816"><ele>554.0</ele><time>2026-04-03T14:51:38.217Z</time></trkpt><trkpt lat="44.3320229" lon="7.6882906"><ele>554.0</ele><time>2026-04-03T14:51:39.216Z</time></trkpt><trkpt lat="44.3318476" lon="7.6881"><ele>554.0</ele><time>2026-04-03T14:51:40.215Z</time></trkpt><trkpt lat="44.3316683" lon="7.6879048"><ele>554.0</ele><time>2026-04-03T14:51:41.219Z</time></trkpt><trkpt lat="44.331488" lon="7.6877051"><ele>554.0</ele><time>2026-04-03T14:51:42.228Z</time></trkpt><trkpt lat="44.3313124" lon="7.687501"><ele>554.0</ele><time>2026-04-03T14:51:43.216Z</time></trkpt><trkpt lat="44.3311425" lon="7.6872876"><ele>554.0</ele><time>2026-04-03T14:51:44.22Z</time></trkpt><trkpt lat="44.3309769" lon="7.6870646"><ele>554.5</ele><time>2026-04-03T14:51:45.219Z</time></trkpt><trkpt lat="44.3308137" lon="7.6868364"><ele>555.0</ele><time>2026-04-03T14:51:46.219Z</time></trkpt><trkpt lat="44.3306568" lon="7.6865971"><ele>556.0</ele><time>2026-04-03T14:51:47.221Z</time></trkpt><trkpt lat="44.330503" lon="7.6863513"><ele>557.0</ele><time>2026-04-03T14:51:48.218Z</time></trkpt><trkpt lat="44.33035" lon="7.6861016"><ele>557.0</ele><time>2026-04-03T14:51:49.229Z</time></trkpt><trkpt lat="44.3301966" lon="7.6858477"><ele>557.0</ele><time>2026-04-03T14:51:50.219Z</time></trkpt><trkpt lat="44.3300445" lon="7.6856007"><ele>557.0</ele><time>2026-04-03T14:51:51.22Z</time></trkpt><trkpt lat="44.3298932" lon="7.685353"><ele>557.0</ele><time>2026-04-03T14:51:52.216Z</time></trkpt><trkpt lat="44.329747" lon="7.6851067"><ele>559.0</ele><time>2026-04-03T14:51:53.218Z</time></trkpt><trkpt lat="44.3295965" lon="7.6848633"><ele>561.0</ele><time>2026-04-03T14:51:54.218Z</time></trkpt><trkpt lat="44.3294454" lon="7.684621"><ele>560.0</ele><time>2026-04-03T14:51:55.217Z</time></trkpt><trkpt lat="44.329294" lon="7.6843797"><ele>559.0</ele><time>2026-04-03T14:51:56.221Z</time></trkpt><trkpt lat="44.3291422" lon="7.6841368"><ele>559.0</ele><time>2026-04-03T14:51:57.219Z</time></trkpt><trkpt lat="44.3289901" lon="7.683889"><ele>559.0</ele><time>2026-04-03T14:51:58.217Z</time></trkpt><trkpt lat="44.3288391" lon="7.6836443"><ele>563.5</ele><time>2026-04-03T14:51:59.223Z</time></trkpt><trkpt lat="44.328689" lon="7.6833985"><ele>568.0</ele><time>2026-04-03T14:52:00.218Z</time></trkpt><trkpt lat="44.3285425" lon="7.6831603"><ele>568.0</ele><time>2026-04-03T14:52:01.217Z</time></trkpt><trkpt lat="44.328404" lon="7.6829252"><ele>568.0</ele><time>2026-04-03T14:52:02.217Z</time></trkpt><trkpt lat="44.3282696" lon="7.6827042"><ele>568.0</ele><time>2026-04-03T14:52:03.219Z</time></trkpt><trkpt lat="44.3281404" lon="7.6824904"><ele>572.6666666666667</ele><time>2026-04-03T14:52:04.217Z</time></trkpt><trkpt lat="44.3280094" lon="7.6822761"><ele>577.3333333333334</ele><time>2026-04-03T14:52:05.216Z</time></trkpt><trkpt lat="44.3278801" lon="7.6820623"><ele>582.0</ele><time>2026-04-03T14:52:06.222Z</time></trkpt><trkpt lat="44.3277467" lon="7.6818514"><ele>582.0</ele><time>2026-04-03T14:52:07.22Z</time></trkpt><trkpt lat="44.3276215" lon="7.6816385"><ele>582.0</ele><time>2026-04-03T14:52:08.216Z</time></trkpt><trkpt lat="44.3274941" lon="7.681433"><ele>582.0</ele><time>2026-04-03T14:52:09.214Z</time></trkpt><trkpt lat="44.3273652" lon="7.6812294"><ele>583.6666666666666</ele><time>2026-04-03T14:52:10.218Z</time></trkpt><trkpt lat="44.3272359" lon="7.6810432"><ele>585.3333333333333</ele><time>2026-04-03T14:52:11.215Z</time></trkpt><trkpt lat="44.3271092" lon="7.6808812"><ele>587.0</ele><time>2026-04-03T14:52:12.216Z</time></trkpt><trkpt lat="44.3269843" lon="7.68074"><ele>587.0</ele><time>2026-04-03T14:52:13.217Z</time></trkpt><trkpt lat="44.3268763" lon="7.6806167"><ele>587.0</ele><time>2026-04-03T14:52:14.218Z</time></trkpt><trkpt lat="44.3267785" lon="7.6805067"><ele>587.0</ele><time>2026-04-03T14:52:15.218Z</time></trkpt><trkpt lat="44.3266941" lon="7.6804149"><ele>587.0</ele><time>2026-04-03T14:52:16.217Z</time></trkpt><trkpt lat="44.3266264" lon="7.6803314"><ele>583.6</ele><time>2026-04-03T14:52:17.22Z</time></trkpt><trkpt lat="44.3265873" lon="7.6802488"><ele>580.2</ele><time>2026-04-03T14:52:18.223Z</time></trkpt><trkpt lat="44.32658" lon="7.6801566"><ele>576.8</ele><time>2026-04-03T14:52:19.219Z</time></trkpt><trkpt lat="44.3266102" lon="7.6800495"><ele>573.4</ele><time>2026-04-03T14:52:20.218Z</time></trkpt><trkpt lat="44.3266716" lon="7.6799182"><ele>570.0</ele><time>2026-04-03T14:52:21.228Z</time></trkpt><trkpt lat="44.3267321" lon="7.6797654"><ele>570.0</ele><time>2026-04-03T14:52:22.221Z</time></trkpt><trkpt lat="44.3267995" lon="7.6795884"><ele>570.0</ele><time>2026-04-03T14:52:23.221Z</time></trkpt><trkpt lat="44.3268641" lon="7.6793919"><ele>570.0</ele><time>2026-04-03T14:52:24.217Z</time></trkpt><trkpt lat="44.3269239" lon="7.679189"><ele>570.6666666666666</ele><time>2026-04-03T14:52:25.218Z</time></trkpt><trkpt lat="44.3269788" lon="7.6789554"><ele>571.3333333333333</ele><time>2026-04-03T14:52:26.219Z</time></trkpt><trkpt lat="44.3270216" lon="7.6787105"><ele>572.0</ele><time>2026-04-03T14:52:27.221Z</time></trkpt><trkpt lat="44.3270595" lon="7.6784771"><ele>572.0</ele><time>2026-04-03T14:52:28.217Z</time></trkpt><trkpt lat="44.3270942" lon="7.6782459"><ele>572.0</ele><time>2026-04-03T14:52:29.223Z</time></trkpt><trkpt lat="44.327127" lon="7.678028"><ele>572.0</ele><time>2026-04-03T14:52:30.221Z</time></trkpt><trkpt lat="44.3271583" lon="7.6778241"><ele>571.25</ele><time>2026-04-03T14:52:31.216Z</time></trkpt><trkpt lat="44.3271872" lon="7.6776394"><ele>570.5</ele><time>2026-04-03T14:52:32.22Z</time></trkpt><trkpt lat="44.3272098" lon="7.677472"><ele>569.75</ele><time>2026-04-03T14:52:33.215Z</time></trkpt><trkpt lat="44.3272336" lon="7.677315"><ele>569.0</ele><time>2026-04-03T14:52:34.219Z</time></trkpt><trkpt lat="44.3272557" lon="7.6771568"><ele>568.75</ele><time>2026-04-03T14:52:35.218Z</time></trkpt><trkpt lat="44.3272801" lon="7.676989"><ele>568.5</ele><time>2026-04-03T14:52:36.219Z</time></trkpt><trkpt lat="44.327305" lon="7.676815"><ele>568.25</ele><time>2026-04-03T14:52:37.213Z</time></trkpt><trkpt lat="44.3273317" lon="7.6766383"><ele>568.0</ele><time>2026-04-03T14:52:38.225Z</time></trkpt><trkpt lat="44.3273617" lon="7.6764644"><ele>568.0</ele><time>2026-04-03T14:52:39.215Z</time></trkpt><trkpt lat="44.3273922" lon="7.6762876"><ele>568.0</ele><time>2026-04-03T14:52:40.221Z</time></trkpt><trkpt lat="44.3274201" lon="7.6760994"><ele>568.0</ele><time>2026-04-03T14:52:41.218Z</time></trkpt><trkpt lat="44.3274509" lon="7.6759115"><ele>568.0</ele><time>2026-04-03T14:52:42.222Z</time></trkpt><trkpt lat="44.327483" lon="7.6757134"><ele>568.0</ele><time>2026-04-03T14:52:43.22Z</time></trkpt><trkpt lat="44.327514" lon="7.6755093"><ele>568.0</ele><time>2026-04-03T14:52:44.23Z</time></trkpt><trkpt lat="44.3275446" lon="7.6753039"><ele>568.0</ele><time>2026-04-03T14:52:45.224Z</time></trkpt><trkpt lat="44.327578" lon="7.6751015"><ele>568.0</ele><time>2026-04-03T14:52:46.214Z</time></trkpt><trkpt lat="44.3276132" lon="7.6748894"><ele>568.0</ele><time>2026-04-03T14:52:47.228Z</time></trkpt><trkpt lat="44.3276476" lon="7.6746673"><ele>568.0</ele><time>2026-04-03T14:52:48.219Z</time></trkpt><trkpt lat="44.3276825" lon="7.6744396"><ele>568.0</ele><time>2026-04-03T14:52:49.221Z</time></trkpt><trkpt lat="44.3277177" lon="7.6742145"><ele>567.6666666666667</ele><time>2026-04-03T14:52:50.219Z</time></trkpt><trkpt lat="44.3277532" lon="7.6739881"><ele>567.3333333333334</ele><time>2026-04-03T14:52:51.221Z</time></trkpt><trkpt lat="44.3277866" lon="7.6737576"><ele>567.0</ele><time>2026-04-03T14:52:52.224Z</time></trkpt><trkpt lat="44.3278161" lon="7.6735344"><ele>566.3333333333334</ele><time>2026-04-03T14:52:53.216Z</time></trkpt><trkpt lat="44.3278473" lon="7.6733083"><ele>565.6666666666667</ele><time>2026-04-03T14:52:54.226Z</time></trkpt><trkpt lat="44.3278853" lon="7.6730774"><ele>565.0</ele><time>2026-04-03T14:52:55.218Z</time></trkpt><trkpt lat="44.3279187" lon="7.6728464"><ele>566.3333333333334</ele><time>2026-04-03T14:52:56.22Z</time></trkpt><trkpt lat="44.3279515" lon="7.6726175"><ele>567.6666666666666</ele><time>2026-04-03T14:52:57.223Z</time></trkpt><trkpt lat="44.3279845" lon="7.672392"><ele>569.0</ele><time>2026-04-03T14:52:58.221Z</time></trkpt><trkpt lat="44.3280195" lon="7.6721592"><ele>571.0</ele><time>2026-04-03T14:52:59.22Z</time></trkpt><trkpt lat="44.3280545" lon="7.671931"><ele>573.0</ele><time>2026-04-03T14:53:00.215Z</time></trkpt><trkpt lat="44.3280852" lon="7.6717223"><ele>575.0</ele><time>2026-04-03T14:53:01.213Z</time></trkpt><trkpt lat="44.3281126" lon="7.6715359"><ele>575.0</ele><time>2026-04-03T14:53:02.223Z</time></trkpt><trkpt lat="44.3281415" lon="7.6713714"><ele>575.0</ele><time>2026-04-03T14:53:03.217Z</time></trkpt><trkpt lat="44.3281655" lon="7.6712146"><ele>575.0</ele><time>2026-04-03T14:53:04.215Z</time></trkpt><trkpt lat="44.3281867" lon="7.6710843"><ele>575.0</ele><time>2026-04-03T14:53:05.218Z</time></trkpt><trkpt lat="44.3282043" lon="7.6709702"><ele>575.0</ele><time>2026-04-03T14:53:06.214Z</time></trkpt><trkpt lat="44.3282139" lon="7.6708747"><ele>575.1666666666666</ele><time>2026-04-03T14:53:07.22Z</time></trkpt><trkpt lat="44.3282295" lon="7.6707843"><ele>575.3333333333333</ele><time>2026-04-03T14:53:09.215Z</time></trkpt><trkpt lat="44.3282482" lon="7.6706514"><ele>575.5</ele><time>2026-04-03T14:53:11.226Z</time></trkpt><trkpt lat="44.3282721" lon="7.6705382"><ele>575.6666666666666</ele><time>2026-04-03T14:53:13.218Z</time></trkpt><trkpt lat="44.3283045" lon="7.67046"><ele>575.8333333333334</ele><time>2026-04-03T14:53:14.216Z</time></trkpt><trkpt lat="44.3283655" lon="7.6703652"><ele>576.0</ele><time>2026-04-03T14:53:15.23Z</time></trkpt><trkpt lat="44.3284418" lon="7.6702582"><ele>575.5</ele><time>2026-04-03T14:53:16.218Z</time></trkpt><trkpt lat="44.3285129" lon="7.670145"><ele>575.0</ele><time>2026-04-03T14:53:17.22Z</time></trkpt><trkpt lat="44.3285973" lon="7.6700102"><ele>574.5</ele><time>2026-04-03T14:53:18.218Z</time></trkpt><trkpt lat="44.3286878" lon="7.6698754"><ele>574.0</ele><time>2026-04-03T14:53:19.218Z</time></trkpt><trkpt lat="44.3287797" lon="7.6697314"><ele>574.0</ele><time>2026-04-03T14:53:20.215Z</time></trkpt><trkpt lat="44.3288737" lon="7.6695813"><ele>574.0</ele><time>2026-04-03T14:53:21.22Z</time></trkpt><trkpt lat="44.3289651" lon="7.6694322"><ele>574.0</ele><time>2026-04-03T14:53:22.22Z</time></trkpt><trkpt lat="44.3290604" lon="7.6692834"><ele>574.0</ele><time>2026-04-03T14:53:23.221Z</time></trkpt><trkpt lat="44.3291612" lon="7.6691296"><ele>573.6666666666667</ele><time>2026-04-03T14:53:24.218Z</time></trkpt><trkpt lat="44.3292623" lon="7.6689641"><ele>573.3333333333334</ele><time>2026-04-03T14:53:25.221Z</time></trkpt><trkpt lat="44.3293658" lon="7.6687826"><ele>573.0</ele><time>2026-04-03T14:53:26.221Z</time></trkpt><trkpt lat="44.3294669" lon="7.6685772"><ele>573.0</ele><time>2026-04-03T14:53:27.216Z</time></trkpt><trkpt lat="44.329559" lon="7.6683557"><ele>573.0</ele><time>2026-04-03T14:53:28.228Z</time></trkpt><trkpt lat="44.3296476" lon="7.6681204"><ele>573.0</ele><time>2026-04-03T14:53:29.224Z</time></trkpt><trkpt lat="44.3297304" lon="7.6678766"><ele>571.6666666666666</ele><time>2026-04-03T14:53:30.218Z</time></trkpt><trkpt lat="44.3297911" lon="7.6676441"><ele>570.3333333333333</ele><time>2026-04-03T14:53:31.217Z</time></trkpt><trkpt lat="44.3298428" lon="7.6674107"><ele>569.0</ele><time>2026-04-03T14:53:32.225Z</time></trkpt><trkpt lat="44.3298858" lon="7.6671646"><ele>568.0</ele><time>2026-04-03T14:53:33.222Z</time></trkpt><trkpt lat="44.3299154" lon="7.6669085"><ele>567.0</ele><time>2026-04-03T14:53:34.218Z</time></trkpt><trkpt lat="44.3299307" lon="7.666648"><ele>566.0</ele><time>2026-04-03T14:53:35.214Z</time></trkpt><trkpt lat="44.3299389" lon="7.6663861"><ele>566.0</ele><time>2026-04-03T14:53:36.226Z</time></trkpt><trkpt lat="44.3299372" lon="7.6661152"><ele>566.0</ele><time>2026-04-03T14:53:37.219Z</time></trkpt><trkpt lat="44.3299214" lon="7.665854"><ele>566.0</ele><time>2026-04-03T14:53:38.22Z</time></trkpt><trkpt lat="44.3298955" lon="7.6656056"><ele>566.0</ele><time>2026-04-03T14:53:39.216Z</time></trkpt><trkpt lat="44.329866" lon="7.6653521"><ele>566.0</ele><time>2026-04-03T14:53:40.221Z</time></trkpt><trkpt lat="44.3298325" lon="7.6651095"><ele>566.0</ele><time>2026-04-03T14:53:41.216Z</time></trkpt><trkpt lat="44.3297995" lon="7.6648603"><ele>566.0</ele><time>2026-04-03T14:53:42.217Z</time></trkpt><trkpt lat="44.3297696" lon="7.6646083"><ele>566.0</ele><time>2026-04-03T14:53:43.215Z</time></trkpt><trkpt lat="44.3297375" lon="7.6643436"><ele>566.0</ele><time>2026-04-03T14:53:44.215Z</time></trkpt><trkpt lat="44.3297065" lon="7.6640726"><ele>565.6666666666666</ele><time>2026-04-03T14:53:45.22Z</time></trkpt><trkpt lat="44.3296713" lon="7.6637944"><ele>565.3333333333334</ele><time>2026-04-03T14:53:46.219Z</time></trkpt><trkpt lat="44.329635" lon="7.6635096"><ele>565.0</ele><time>2026-04-03T14:53:47.217Z</time></trkpt><trkpt lat="44.3295964" lon="7.6632146"><ele>565.0</ele><time>2026-04-03T14:53:48.218Z</time></trkpt><trkpt lat="44.3295568" lon="7.6629246"><ele>565.0</ele><time>2026-04-03T14:53:49.214Z</time></trkpt><trkpt lat="44.3295109" lon="7.6626243"><ele>565.0</ele><time>2026-04-03T14:53:50.222Z</time></trkpt><trkpt lat="44.329464" lon="7.6623121"><ele>565.0</ele><time>2026-04-03T14:53:51.219Z</time></trkpt><trkpt lat="44.3294198" lon="7.6619848"><ele>565.0</ele><time>2026-04-03T14:53:52.217Z</time></trkpt><trkpt lat="44.3293785" lon="7.6616453"><ele>563.0</ele><time>2026-04-03T14:53:53.219Z</time></trkpt><trkpt lat="44.3293494" lon="7.6613014"><ele>561.0</ele><time>2026-04-03T14:53:54.228Z</time></trkpt><trkpt lat="44.3293138" lon="7.6609472"><ele>561.0</ele><time>2026-04-03T14:53:55.225Z</time></trkpt><trkpt lat="44.3292689" lon="7.6605898"><ele>561.0</ele><time>2026-04-03T14:53:56.219Z</time></trkpt><trkpt lat="44.3292202" lon="7.660235"><ele>561.0</ele><time>2026-04-03T14:53:57.221Z</time></trkpt><trkpt lat="44.3291745" lon="7.6598769"><ele>561.0</ele><time>2026-04-03T14:53:58.221Z</time></trkpt><trkpt lat="44.3291319" lon="7.659519"><ele>561.0</ele><time>2026-04-03T14:53:59.219Z</time></trkpt><trkpt lat="44.3290897" lon="7.6591589"><ele>561.0</ele><time>2026-04-03T14:54:00.217Z</time></trkpt><trkpt lat="44.3290463" lon="7.658801"><ele>560.0</ele><time>2026-04-03T14:54:01.215Z</time></trkpt><trkpt lat="44.3290007" lon="7.6584507"><ele>559.0</ele><time>2026-04-03T14:54:02.214Z</time></trkpt><trkpt lat="44.3289552" lon="7.6581057"><ele>558.0</ele><time>2026-04-03T14:54:03.216Z</time></trkpt><trkpt lat="44.3289096" lon="7.6577648"><ele>557.0</ele><time>2026-04-03T14:54:04.22Z</time></trkpt><trkpt lat="44.3288625" lon="7.6574254"><ele>557.0</ele><time>2026-04-03T14:54:05.214Z</time></trkpt><trkpt lat="44.3288157" lon="7.6570948"><ele>557.0</ele><time>2026-04-03T14:54:06.221Z</time></trkpt><trkpt lat="44.3287734" lon="7.6567643"><ele>557.0</ele><time>2026-04-03T14:54:07.218Z</time></trkpt><trkpt lat="44.3287314" lon="7.6564349"><ele>557.0</ele><time>2026-04-03T14:54:08.22Z</time></trkpt><trkpt lat="44.328694" lon="7.6561104"><ele>557.0</ele><time>2026-04-03T14:54:09.222Z</time></trkpt><trkpt lat="44.3286543" lon="7.6557886"><ele>557.0</ele><time>2026-04-03T14:54:10.216Z</time></trkpt><trkpt lat="44.3286148" lon="7.6554707"><ele>557.0</ele><time>2026-04-03T14:54:11.214Z</time></trkpt><trkpt lat="44.3285743" lon="7.655154"><ele>557.0</ele><time>2026-04-03T14:54:12.23Z</time></trkpt><trkpt lat="44.3285306" lon="7.654835"><ele>557.0</ele><time>2026-04-03T14:54:13.219Z</time></trkpt><trkpt lat="44.3284896" lon="7.654526"><ele>557.0</ele><time>2026-04-03T14:54:14.215Z</time></trkpt><trkpt lat="44.3284478" lon="7.6542125"><ele>557.0</ele><time>2026-04-03T14:54:15.229Z</time></trkpt><trkpt lat="44.3284053" lon="7.6539009"><ele>557.0</ele><time>2026-04-03T14:54:16.22Z</time></trkpt><trkpt lat="44.3283631" lon="7.6535953"><ele>557.3333333333333</ele><time>2026-04-03T14:54:17.214Z</time></trkpt><trkpt lat="44.3283233" lon="7.6532841"><ele>557.6666666666666</ele><time>2026-04-03T14:54:18.216Z</time></trkpt><trkpt lat="44.3282855" lon="7.6529896"><ele>558.0</ele><time>2026-04-03T14:54:19.218Z</time></trkpt><trkpt lat="44.3282501" lon="7.652698"><ele>559.0</ele><time>2026-04-03T14:54:20.216Z</time></trkpt><trkpt lat="44.3282111" lon="7.6524085"><ele>560.0</ele><time>2026-04-03T14:54:21.216Z</time></trkpt><trkpt lat="44.3281736" lon="7.6521264"><ele>561.0</ele><time>2026-04-03T14:54:22.214Z</time></trkpt><trkpt lat="44.3281365" lon="7.6518452"><ele>562.0</ele><time>2026-04-03T14:54:23.217Z</time></trkpt><trkpt lat="44.3280999" lon="7.6515651"><ele>563.0</ele><time>2026-04-03T14:54:24.227Z</time></trkpt><trkpt lat="44.3280663" lon="7.6512854"><ele>564.0</ele><time>2026-04-03T14:54:25.218Z</time></trkpt><trkpt lat="44.3280296" lon="7.651005"><ele>566.0</ele><time>2026-04-03T14:54:26.216Z</time></trkpt><trkpt lat="44.3279933" lon="7.6507222"><ele>568.0</ele><time>2026-04-03T14:54:27.217Z</time></trkpt><trkpt lat="44.3279587" lon="7.6504426"><ele>570.0</ele><time>2026-04-03T14:54:28.217Z</time></trkpt><trkpt lat="44.3279203" lon="7.6501606"><ele>571.0</ele><time>2026-04-03T14:54:29.217Z</time></trkpt><trkpt lat="44.3278816" lon="7.649881"><ele>572.0</ele><time>2026-04-03T14:54:30.224Z</time></trkpt><trkpt lat="44.3278469" lon="7.6495959"><ele>573.0</ele><time>2026-04-03T14:54:31.216Z</time></trkpt><trkpt lat="44.3278104" lon="7.6493121"><ele>573.3333333333334</ele><time>2026-04-03T14:54:32.23Z</time></trkpt><trkpt lat="44.3277741" lon="7.6490251"><ele>573.6666666666667</ele><time>2026-04-03T14:54:33.216Z</time></trkpt><trkpt lat="44.3277335" lon="7.6487345"><ele>574.0</ele><time>2026-04-03T14:54:34.215Z</time></trkpt><trkpt lat="44.3276932" lon="7.6484369"><ele>574.0</ele><time>2026-04-03T14:54:35.213Z</time></trkpt><trkpt lat="44.3276558" lon="7.6481434"><ele>574.0</ele><time>2026-04-03T14:54:36.222Z</time></trkpt><trkpt lat="44.3276126" lon="7.6478516"><ele>574.0</ele><time>2026-04-03T14:54:37.221Z</time></trkpt><trkpt lat="44.3275605" lon="7.6475597"><ele>573.0</ele><time>2026-04-03T14:54:38.219Z</time></trkpt><trkpt lat="44.3274938" lon="7.6472646"><ele>572.0</ele><time>2026-04-03T14:54:39.217Z</time></trkpt><trkpt lat="44.3274225" lon="7.6469639"><ele>571.0</ele><time>2026-04-03T14:54:40.213Z</time></trkpt><trkpt lat="44.3273456" lon="7.6466617"><ele>571.0</ele><time>2026-04-03T14:54:41.22Z</time></trkpt><trkpt lat="44.3272672" lon="7.6463607"><ele>571.0</ele><time>2026-04-03T14:54:42.215Z</time></trkpt><trkpt lat="44.3271887" lon="7.646081"><ele>571.0</ele><time>2026-04-03T14:54:43.216Z</time></trkpt><trkpt lat="44.3271257" lon="7.6458153"><ele>572.3333333333334</ele><time>2026-04-03T14:54:44.216Z</time></trkpt><trkpt lat="44.3270652" lon="7.6455639"><ele>573.6666666666666</ele><time>2026-04-03T14:54:45.216Z</time></trkpt><trkpt lat="44.3270106" lon="7.645311"><ele>575.0</ele><time>2026-04-03T14:54:46.221Z</time></trkpt><trkpt lat="44.3269587" lon="7.6450636"><ele>575.0</ele><time>2026-04-03T14:54:47.216Z</time></trkpt><trkpt lat="44.326918" lon="7.6448056"><ele>575.0</ele><time>2026-04-03T14:54:48.216Z</time></trkpt><trkpt lat="44.3268987" lon="7.6445438"><ele>575.0</ele><time>2026-04-03T14:54:49.222Z</time></trkpt><trkpt lat="44.3268861" lon="7.6442814"><ele>573.0</ele><time>2026-04-03T14:54:50.216Z</time></trkpt><trkpt lat="44.3269001" lon="7.6439998"><ele>571.0</ele><time>2026-04-03T14:54:51.218Z</time></trkpt><trkpt lat="44.3269296" lon="7.6437151"><ele>569.0</ele><time>2026-04-03T14:54:52.233Z</time></trkpt><trkpt lat="44.3269633" lon="7.6434272"><ele>567.6666666666666</ele><time>2026-04-03T14:54:53.218Z</time></trkpt><trkpt lat="44.327002" lon="7.6431371"><ele>566.3333333333334</ele><time>2026-04-03T14:54:54.217Z</time></trkpt><trkpt lat="44.3270412" lon="7.6428393"><ele>565.0</ele><time>2026-04-03T14:54:55.218Z</time></trkpt><trkpt lat="44.3270816" lon="7.6425388"><ele>564.0</ele><time>2026-04-03T14:54:56.218Z</time></trkpt><trkpt lat="44.3271178" lon="7.6422372"><ele>563.0</ele><time>2026-04-03T14:54:57.22Z</time></trkpt><trkpt lat="44.3271611" lon="7.6419357"><ele>562.0</ele><time>2026-04-03T14:54:58.22Z</time></trkpt><trkpt lat="44.3272037" lon="7.6416325"><ele>561.0</ele><time>2026-04-03T14:54:59.216Z</time></trkpt><trkpt lat="44.3272418" lon="7.6413298"><ele>560.0</ele><time>2026-04-03T14:55:00.221Z</time></trkpt><trkpt lat="44.3272791" lon="7.6410269"><ele>559.0</ele><time>2026-04-03T14:55:01.22Z</time></trkpt><trkpt lat="44.327318" lon="7.6407223"><ele>559.0</ele><time>2026-04-03T14:55:02.219Z</time></trkpt><trkpt lat="44.327354" lon="7.6404202"><ele>559.0</ele><time>2026-04-03T14:55:03.218Z</time></trkpt><trkpt lat="44.3273896" lon="7.6401239"><ele>559.0</ele><time>2026-04-03T14:55:04.215Z</time></trkpt><trkpt lat="44.3274312" lon="7.6398224"><ele>559.6666666666667</ele><time>2026-04-03T14:55:05.228Z</time></trkpt><trkpt lat="44.3274887" lon="7.6395257"><ele>560.3333333333334</ele><time>2026-04-03T14:55:06.218Z</time></trkpt><trkpt lat="44.3275645" lon="7.6392357"><ele>561.0</ele><time>2026-04-03T14:55:07.214Z</time></trkpt><trkpt lat="44.3276569" lon="7.6389507"><ele>562.0</ele><time>2026-04-03T14:55:08.219Z</time></trkpt><trkpt lat="44.327765" lon="7.6386801"><ele>563.0</ele><time>2026-04-03T14:55:09.22Z</time></trkpt><trkpt lat="44.3279029" lon="7.6384343"><ele>564.0</ele><time>2026-04-03T14:55:10.221Z</time></trkpt><trkpt lat="44.3280479" lon="7.6382046"><ele>563.6666666666666</ele><time>2026-04-03T14:55:11.216Z</time></trkpt><trkpt lat="44.3281906" lon="7.6379699"><ele>563.3333333333333</ele><time>2026-04-03T14:55:12.218Z</time></trkpt><trkpt lat="44.3283291" lon="7.637732"><ele>563.0</ele><time>2026-04-03T14:55:13.222Z</time></trkpt><trkpt lat="44.328467" lon="7.6374866"><ele>564.0</ele><time>2026-04-03T14:55:14.217Z</time></trkpt><trkpt lat="44.3285995" lon="7.6372382"><ele>565.0</ele><time>2026-04-03T14:55:15.225Z</time></trkpt><trkpt lat="44.3287224" lon="7.6369764"><ele>566.0</ele><time>2026-04-03T14:55:16.219Z</time></trkpt><trkpt lat="44.3288359" lon="7.636707"><ele>566.5</ele><time>2026-04-03T14:55:17.22Z</time></trkpt><trkpt lat="44.328947" lon="7.6364333"><ele>567.0</ele><time>2026-04-03T14:55:18.214Z</time></trkpt><trkpt lat="44.3290483" lon="7.6361528"><ele>567.5</ele><time>2026-04-03T14:55:19.219Z</time></trkpt><trkpt lat="44.3291399" lon="7.6358652"><ele>568.0</ele><time>2026-04-03T14:55:20.211Z</time></trkpt><trkpt lat="44.3292298" lon="7.6355699"><ele>568.0</ele><time>2026-04-03T14:55:21.221Z</time></trkpt><trkpt lat="44.3293164" lon="7.6352689"><ele>568.0</ele><time>2026-04-03T14:55:22.214Z</time></trkpt><trkpt lat="44.3293986" lon="7.6349702"><ele>568.0</ele><time>2026-04-03T14:55:23.227Z</time></trkpt><trkpt lat="44.3294851" lon="7.6346705"><ele>568.0</ele><time>2026-04-03T14:55:24.22Z</time></trkpt><trkpt lat="44.3295804" lon="7.6343517"><ele>568.5</ele><time>2026-04-03T14:55:25.215Z</time></trkpt><trkpt lat="44.3296794" lon="7.6340189"><ele>569.0</ele><time>2026-04-03T14:55:26.227Z</time></trkpt><trkpt lat="44.3297781" lon="7.6336887"><ele>568.5</ele><time>2026-04-03T14:55:27.219Z</time></trkpt><trkpt lat="44.3298654" lon="7.6333809"><ele>568.0</ele><time>2026-04-03T14:55:28.221Z</time></trkpt><trkpt lat="44.329949" lon="7.6330827"><ele>568.3333333333334</ele><time>2026-04-03T14:55:29.218Z</time></trkpt><trkpt lat="44.330031" lon="7.6328005"><ele>568.6666666666666</ele><time>2026-04-03T14:55:30.219Z</time></trkpt><trkpt lat="44.3301073" lon="7.632534"><ele>569.0</ele><time>2026-04-03T14:55:31.219Z</time></trkpt><trkpt lat="44.3301773" lon="7.6322647"><ele>569.0</ele><time>2026-04-03T14:55:32.217Z</time></trkpt><trkpt lat="44.3302444" lon="7.6319855"><ele>569.0</ele><time>2026-04-03T14:55:33.218Z</time></trkpt><trkpt lat="44.3302997" lon="7.6317"><ele>569.0</ele><time>2026-04-03T14:55:34.221Z</time></trkpt><trkpt lat="44.3303425" lon="7.6314102"><ele>569.3333333333333</ele><time>2026-04-03T14:55:35.217Z</time></trkpt><trkpt lat="44.3303755" lon="7.6311093"><ele>569.6666666666666</ele><time>2026-04-03T14:55:36.22Z</time></trkpt><trkpt lat="44.3304" lon="7.630804"><ele>570.0</ele><time>2026-04-03T14:55:37.218Z</time></trkpt><trkpt lat="44.3304171" lon="7.6305041"><ele>571.0</ele><time>2026-04-03T14:55:38.213Z</time></trkpt><trkpt lat="44.3304172" lon="7.6301966"><ele>572.0</ele><time>2026-04-03T14:55:39.218Z</time></trkpt><trkpt lat="44.3304212" lon="7.6298845"><ele>573.0</ele><time>2026-04-03T14:55:40.213Z</time></trkpt><trkpt lat="44.3304303" lon="7.6295759"><ele>573.3333333333334</ele><time>2026-04-03T14:55:41.215Z</time></trkpt><trkpt lat="44.330434" lon="7.6292833"><ele>573.6666666666667</ele><time>2026-04-03T14:55:42.228Z</time></trkpt><trkpt lat="44.3304381" lon="7.629"><ele>574.0</ele><time>2026-04-03T14:55:43.216Z</time></trkpt><trkpt lat="44.3304443" lon="7.6287273"><ele>574.0</ele><time>2026-04-03T14:55:44.215Z</time></trkpt><trkpt lat="44.3304511" lon="7.6284545"><ele>574.0</ele><time>2026-04-03T14:55:45.214Z</time></trkpt><trkpt lat="44.3304583" lon="7.6281941"><ele>574.0</ele><time>2026-04-03T14:55:46.214Z</time></trkpt><trkpt lat="44.3304626" lon="7.627947"><ele>574.3333333333334</ele><time>2026-04-03T14:55:47.22Z</time></trkpt><trkpt lat="44.3304647" lon="7.6277111"><ele>574.6666666666666</ele><time>2026-04-03T14:55:48.219Z</time></trkpt><trkpt lat="44.3304675" lon="7.6274881"><ele>575.0</ele><time>2026-04-03T14:55:49.217Z</time></trkpt><trkpt lat="44.3304677" lon="7.6272819"><ele>575.0</ele><time>2026-04-03T14:55:50.229Z</time></trkpt><trkpt lat="44.3304658" lon="7.6270891"><ele>575.0</ele><time>2026-04-03T14:55:51.225Z</time></trkpt><trkpt lat="44.3304694" lon="7.626912"><ele>575.0</ele><time>2026-04-03T14:55:52.214Z</time></trkpt><trkpt lat="44.3304742" lon="7.6267464"><ele>575.0</ele><time>2026-04-03T14:55:53.215Z</time></trkpt><trkpt lat="44.330473" lon="7.6265972"><ele>575.0</ele><time>2026-04-03T14:55:54.221Z</time></trkpt><trkpt lat="44.3304732" lon="7.6264571"><ele>575.0</ele><time>2026-04-03T14:55:55.219Z</time></trkpt><trkpt lat="44.3304732" lon="7.6263338"><ele>575.0</ele><time>2026-04-03T14:55:56.214Z</time></trkpt><trkpt lat="44.3304712" lon="7.6262346"><ele>575.0</ele><time>2026-04-03T14:55:57.219Z</time></trkpt><trkpt lat="44.3304716" lon="7.6261189"><ele>575.0</ele><time>2026-04-03T14:55:59.218Z</time></trkpt><trkpt lat="44.3304878" lon="7.6260032"><ele>575.0</ele><time>2026-04-03T14:56:05.224Z</time></trkpt><trkpt lat="44.330512" lon="7.6259071"><ele>574.8333333333333</ele><time>2026-04-03T14:56:06.217Z</time></trkpt><trkpt lat="44.3305069" lon="7.6258075"><ele>574.6666666666666</ele><time>2026-04-03T14:56:07.219Z</time></trkpt><trkpt lat="44.3304686" lon="7.6257333"><ele>574.5</ele><time>2026-04-03T14:56:08.214Z</time></trkpt><trkpt lat="44.3304059" lon="7.6256887"><ele>574.3333333333334</ele><time>2026-04-03T14:56:09.213Z</time></trkpt><trkpt lat="44.3303182" lon="7.6256587"><ele>574.1666666666667</ele><time>2026-04-03T14:56:10.223Z</time></trkpt><trkpt lat="44.3302212" lon="7.625591"><ele>574.0</ele><time>2026-04-03T14:56:11.214Z</time></trkpt><trkpt lat="44.3301377" lon="7.6254806"><ele>574.0</ele><time>2026-04-03T14:56:12.217Z</time></trkpt><trkpt lat="44.3300723" lon="7.625359"><ele>574.0</ele><time>2026-04-03T14:56:13.22Z</time></trkpt><trkpt lat="44.3300127" lon="7.6252272"><ele>574.0</ele><time>2026-04-03T14:56:14.216Z</time></trkpt><trkpt lat="44.3299475" lon="7.6250788"><ele>574.0</ele><time>2026-04-03T14:56:15.217Z</time></trkpt><trkpt lat="44.3298797" lon="7.6249217"><ele>574.5</ele><time>2026-04-03T14:56:16.218Z</time></trkpt><trkpt lat="44.3298083" lon="7.6247594"><ele>575.0</ele><time>2026-04-03T14:56:17.214Z</time></trkpt><trkpt lat="44.3297372" lon="7.6245878"><ele>575.5</ele><time>2026-04-03T14:56:18.216Z</time></trkpt><trkpt lat="44.3296615" lon="7.624419"><ele>576.0</ele><time>2026-04-03T14:56:19.214Z</time></trkpt><trkpt lat="44.3295902" lon="7.6242477"><ele>577.25</ele><time>2026-04-03T14:56:20.215Z</time></trkpt><trkpt lat="44.3295153" lon="7.6240757"><ele>578.5</ele><time>2026-04-03T14:56:21.216Z</time></trkpt><trkpt lat="44.3294407" lon="7.6239028"><ele>579.75</ele><time>2026-04-03T14:56:22.22Z</time></trkpt><trkpt lat="44.329366" lon="7.6237215"><ele>581.0</ele><time>2026-04-03T14:56:23.215Z</time></trkpt><trkpt lat="44.3292916" lon="7.6235408"><ele>582.0</ele><time>2026-04-03T14:56:24.22Z</time></trkpt><trkpt lat="44.3292176" lon="7.623365"><ele>582.0</ele><time>2026-04-03T14:56:25.219Z</time></trkpt></trkseg></trk></gpx>